<?xml version="1.0" encoding="UTF-8"?>
<gpx version="1.1" creator="GPS Track Editor" xmlns="http://www.topografix.com/GPX/1/1" xmlns:xsi="http://www.w3.org/2001/XMLSchema-instance" xmlns:gte="http://www.gpstrackeditor.com/xmlschemas/General/1" xmlns:gpxtpx="http://www.garmin.com/xmlschemas/TrackPointExtension/v1" xmlns:gpxx="http://www.garmin.com/xmlschemas/GpxExtensions/v3" targetNamespace="http://www.topografix.com/GPX/1/1" elementFormDefault="qualified" xsi:schemaLocation="http://www.topografix.com/GPX/1/1 http://www.topografix.com/GPX/1/1/gpx.xsd">
<metadata>
	<name>GPS_2019-03-24_155249</name>
</metadata>
<trk>
	<name>Track 015</name>
	<desc>Mar 24, 2019  9:52 am</desc>
	<trkseg>
		<trkpt lat="35.835665" lon="-106.162292">
			<ele>1669.73</ele>
			<time>2019-03-24T15:52:49.97Z</time>
		</trkpt>
		<trkpt lat="35.835665" lon="-106.162292">
			<ele>1669.59</ele>
			<time>2019-03-24T15:52:52.07Z</time>
		</trkpt>
		<trkpt lat="35.835701" lon="-106.162350">
			<ele>1668.46</ele>
			<time>2019-03-24T15:53:03.13Z</time>
		</trkpt>
		<trkpt lat="35.835741" lon="-106.162457">
			<ele>1668.10</ele>
			<time>2019-03-24T15:53:12.39Z</time>
		</trkpt>
		<trkpt lat="35.835762" lon="-106.162570">
			<ele>1668.36</ele>
			<time>2019-03-24T15:53:19.72Z</time>
		</trkpt>
		<trkpt lat="35.835742" lon="-106.162686">
			<ele>1668.83</ele>
			<time>2019-03-24T15:53:26.92Z</time>
		</trkpt>
		<trkpt lat="35.835682" lon="-106.162768">
			<ele>1669.08</ele>
			<time>2019-03-24T15:53:34.47Z</time>
		</trkpt>
		<trkpt lat="35.835603" lon="-106.162830">
			<ele>1669.11</ele>
			<time>2019-03-24T15:53:41.98Z</time>
		</trkpt>
		<trkpt lat="35.835603" lon="-106.162830">
			<ele>1669.08</ele>
			<time>2019-03-24T15:53:44.98Z</time>
		</trkpt>
		<trkpt lat="35.835603" lon="-106.162830">
			<ele>1668.79</ele>
			<time>2019-03-24T15:53:45.53Z</time>
		</trkpt>
		<trkpt lat="35.835501" lon="-106.162919">
			<ele>1667.41</ele>
			<time>2019-03-24T15:54:02.05Z</time>
		</trkpt>
		<trkpt lat="35.835419" lon="-106.162975">
			<ele>1667.33</ele>
			<time>2019-03-24T15:54:09.59Z</time>
		</trkpt>
		<trkpt lat="35.835376" lon="-106.163086">
			<ele>1667.95</ele>
			<time>2019-03-24T15:54:16.93Z</time>
		</trkpt>
		<trkpt lat="35.835348" lon="-106.163196">
			<ele>1668.68</ele>
			<time>2019-03-24T15:54:23.57Z</time>
		</trkpt>
		<trkpt lat="35.835312" lon="-106.163305">
			<ele>1668.99</ele>
			<time>2019-03-24T15:54:30.57Z</time>
		</trkpt>
		<trkpt lat="35.835254" lon="-106.163393">
			<ele>1668.89</ele>
			<time>2019-03-24T15:54:38Z</time>
		</trkpt>
		<trkpt lat="35.835180" lon="-106.163460">
			<ele>1668.66</ele>
			<time>2019-03-24T15:54:45.59Z</time>
		</trkpt>
		<trkpt lat="35.835108" lon="-106.163550">
			<ele>1668.59</ele>
			<time>2019-03-24T15:54:55.26Z</time>
		</trkpt>
		<trkpt lat="35.835074" lon="-106.163663">
			<ele>1668.71</ele>
			<time>2019-03-24T15:55:04.86Z</time>
		</trkpt>
		<trkpt lat="35.834983" lon="-106.163708">
			<ele>1668.90</ele>
			<time>2019-03-24T15:55:12.61Z</time>
		</trkpt>
		<trkpt lat="35.834924" lon="-106.163802">
			<ele>1669.02</ele>
			<time>2019-03-24T15:55:18.95Z</time>
		</trkpt>
		<trkpt lat="35.834908" lon="-106.163923">
			<ele>1669.02</ele>
			<time>2019-03-24T15:55:25.62Z</time>
		</trkpt>
		<trkpt lat="35.834892" lon="-106.164036">
			<ele>1668.92</ele>
			<time>2019-03-24T15:55:32.46Z</time>
		</trkpt>
		<trkpt lat="35.834833" lon="-106.164126">
			<ele>1668.70</ele>
			<time>2019-03-24T15:55:39.91Z</time>
		</trkpt>
		<trkpt lat="35.834762" lon="-106.164211">
			<ele>1668.34</ele>
			<time>2019-03-24T15:55:49.17Z</time>
		</trkpt>
		<trkpt lat="35.834682" lon="-106.164274">
			<ele>1667.92</ele>
			<time>2019-03-24T15:55:58Z</time>
		</trkpt>
		<trkpt lat="35.834599" lon="-106.164333">
			<ele>1667.59</ele>
			<time>2019-03-24T15:56:06.49Z</time>
		</trkpt>
		<trkpt lat="35.834520" lon="-106.164410">
			<ele>1667.44</ele>
			<time>2019-03-24T15:56:14.52Z</time>
		</trkpt>
		<trkpt lat="35.834448" lon="-106.164491">
			<ele>1667.41</ele>
			<time>2019-03-24T15:56:21.98Z</time>
		</trkpt>
		<trkpt lat="35.834448" lon="-106.164491">
			<ele>1667.45</ele>
			<time>2019-03-24T15:56:26.98Z</time>
		</trkpt>
		<trkpt lat="35.834448" lon="-106.164491">
			<ele>1667.23</ele>
			<time>2019-03-24T15:56:29.37Z</time>
		</trkpt>
		<trkpt lat="35.834354" lon="-106.164522">
			<ele>1665.81</ele>
			<time>2019-03-24T15:56:40.57Z</time>
		</trkpt>
		<trkpt lat="35.834259" lon="-106.164563">
			<ele>1665.72</ele>
			<time>2019-03-24T15:56:47.52Z</time>
		</trkpt>
		<trkpt lat="35.834164" lon="-106.164600">
			<ele>1666.36</ele>
			<time>2019-03-24T15:56:53.99Z</time>
		</trkpt>
		<trkpt lat="35.834164" lon="-106.164600">
			<ele>1667.14</ele>
			<time>2019-03-24T15:57:00.99Z</time>
		</trkpt>
		<trkpt lat="35.834164" lon="-106.164600">
			<ele>1667.23</ele>
			<time>2019-03-24T15:57:17.38Z</time>
		</trkpt>
		<trkpt lat="35.834057" lon="-106.164759">
			<ele>1666.49</ele>
			<time>2019-03-24T15:57:41.20Z</time>
		</trkpt>
		<trkpt lat="35.834050" lon="-106.164883">
			<ele>1665.90</ele>
			<time>2019-03-24T15:57:48.92Z</time>
		</trkpt>
		<trkpt lat="35.834072" lon="-106.164999">
			<ele>1666.21</ele>
			<time>2019-03-24T15:57:55.65Z</time>
		</trkpt>
		<trkpt lat="35.834079" lon="-106.165125">
			<ele>1666.91</ele>
			<time>2019-03-24T15:58:02.88Z</time>
		</trkpt>
		<trkpt lat="35.834058" lon="-106.165245">
			<ele>1667.38</ele>
			<time>2019-03-24T15:58:09.86Z</time>
		</trkpt>
		<trkpt lat="35.834039" lon="-106.165354">
			<ele>1667.59</ele>
			<time>2019-03-24T15:58:16.29Z</time>
		</trkpt>
		<trkpt lat="35.833984" lon="-106.165451">
			<ele>1667.74</ele>
			<time>2019-03-24T15:58:22.99Z</time>
		</trkpt>
		<trkpt lat="35.833936" lon="-106.165554">
			<ele>1668.00</ele>
			<time>2019-03-24T15:58:30.02Z</time>
		</trkpt>
		<trkpt lat="35.833889" lon="-106.165665">
			<ele>1668.38</ele>
			<time>2019-03-24T15:58:38.21Z</time>
		</trkpt>
		<trkpt lat="35.833817" lon="-106.165738">
			<ele>1668.74</ele>
			<time>2019-03-24T15:58:46.09Z</time>
		</trkpt>
		<trkpt lat="35.833744" lon="-106.165819">
			<ele>1668.94</ele>
			<time>2019-03-24T15:58:54.70Z</time>
		</trkpt>
		<trkpt lat="35.833654" lon="-106.165869">
			<ele>1668.97</ele>
			<time>2019-03-24T15:59:03.98Z</time>
		</trkpt>
		<trkpt lat="35.833581" lon="-106.165943">
			<ele>1668.94</ele>
			<time>2019-03-24T15:59:13.04Z</time>
		</trkpt>
		<trkpt lat="35.833511" lon="-106.166016">
			<ele>1668.87</ele>
			<time>2019-03-24T15:59:21.77Z</time>
		</trkpt>
		<trkpt lat="35.833423" lon="-106.166038">
			<ele>1668.71</ele>
			<time>2019-03-24T15:59:31.01Z</time>
		</trkpt>
		<trkpt lat="35.833328" lon="-106.166031">
			<ele>1668.44</ele>
			<time>2019-03-24T15:59:42.84Z</time>
		</trkpt>
		<trkpt lat="35.833236" lon="-106.166025">
			<ele>1668.22</ele>
			<time>2019-03-24T15:59:54.99Z</time>
		</trkpt>
		<trkpt lat="35.833236" lon="-106.166025">
			<ele>1668.16</ele>
			<time>2019-03-24T16:00:05.99Z</time>
		</trkpt>
		<trkpt lat="35.833236" lon="-106.166025">
			<ele>1667.92</ele>
			<time>2019-03-24T16:02:53.71Z</time>
		</trkpt>
		<trkpt lat="35.833106" lon="-106.166080">
			<ele>1667.26</ele>
			<time>2019-03-24T16:03:17.41Z</time>
		</trkpt>
		<trkpt lat="35.833029" lon="-106.166021">
			<ele>1666.68</ele>
			<time>2019-03-24T16:03:26.98Z</time>
		</trkpt>
		<trkpt lat="35.833029" lon="-106.166021">
			<ele>1666.65</ele>
			<time>2019-03-24T16:03:36.99Z</time>
		</trkpt>
		<trkpt lat="35.833029" lon="-106.166021">
			<ele>1666.58</ele>
			<time>2019-03-24T16:04:04.25Z</time>
		</trkpt>
		<trkpt lat="35.833029" lon="-106.166021">
			<ele>1665.10</ele>
			<time>2019-03-24T16:04:15.99Z</time>
		</trkpt>
		<trkpt lat="35.833029" lon="-106.166021">
			<ele>1664.57</ele>
			<time>2019-03-24T16:04:16.09Z</time>
		</trkpt>
		<trkpt lat="35.833029" lon="-106.166021">
			<ele>1663.60</ele>
			<time>2019-03-24T16:04:18.99Z</time>
		</trkpt>
		<trkpt lat="35.833029" lon="-106.166021">
			<ele>1663.10</ele>
			<time>2019-03-24T16:04:19.09Z</time>
		</trkpt>
		<trkpt lat="35.833118" lon="-106.166081">
			<ele>1662.61</ele>
			<time>2019-03-24T16:05:10.48Z</time>
		</trkpt>
		<trkpt lat="35.833211" lon="-106.166060">
			<ele>1662.99</ele>
			<time>2019-03-24T16:05:23.79Z</time>
		</trkpt>
		<trkpt lat="35.833302" lon="-106.166046">
			<ele>1664.90</ele>
			<time>2019-03-24T16:05:34.59Z</time>
		</trkpt>
		<trkpt lat="35.833394" lon="-106.166057">
			<ele>1667.21</ele>
			<time>2019-03-24T16:05:44.69Z</time>
		</trkpt>
		<trkpt lat="35.833493" lon="-106.166044">
			<ele>1668.55</ele>
			<time>2019-03-24T16:05:53.58Z</time>
		</trkpt>
		<trkpt lat="35.833584" lon="-106.165995">
			<ele>1668.71</ele>
			<time>2019-03-24T16:06:01.01Z</time>
		</trkpt>
		<trkpt lat="35.833668" lon="-106.165938">
			<ele>1668.03</ele>
			<time>2019-03-24T16:06:08.45Z</time>
		</trkpt>
		<trkpt lat="35.833748" lon="-106.165880">
			<ele>1667.20</ele>
			<time>2019-03-24T16:06:16.44Z</time>
		</trkpt>
		<trkpt lat="35.833824" lon="-106.165811">
			<ele>1666.85</ele>
			<time>2019-03-24T16:06:25.46Z</time>
		</trkpt>
		<trkpt lat="35.833912" lon="-106.165758">
			<ele>1667.13</ele>
			<time>2019-03-24T16:06:35.17Z</time>
		</trkpt>
		<trkpt lat="35.833971" lon="-106.165668">
			<ele>1667.72</ele>
			<time>2019-03-24T16:06:43.40Z</time>
		</trkpt>
		<trkpt lat="35.834028" lon="-106.165564">
			<ele>1668.18</ele>
			<time>2019-03-24T16:06:51.78Z</time>
		</trkpt>
		<trkpt lat="35.834070" lon="-106.165460">
			<ele>1668.35</ele>
			<time>2019-03-24T16:06:59.81Z</time>
		</trkpt>
		<trkpt lat="35.834085" lon="-106.165350">
			<ele>1668.39</ele>
			<time>2019-03-24T16:07:07.33Z</time>
		</trkpt>
		<trkpt lat="35.834049" lon="-106.165235">
			<ele>1668.46</ele>
			<time>2019-03-24T16:07:14.99Z</time>
		</trkpt>
		<trkpt lat="35.833954" lon="-106.165217">
			<ele>1668.49</ele>
			<time>2019-03-24T16:07:21.82Z</time>
		</trkpt>
		<trkpt lat="35.833855" lon="-106.165183">
			<ele>1668.41</ele>
			<time>2019-03-24T16:07:28.84Z</time>
		</trkpt>
		<trkpt lat="35.833760" lon="-106.165173">
			<ele>1668.31</ele>
			<time>2019-03-24T16:07:36.06Z</time>
		</trkpt>
		<trkpt lat="35.833689" lon="-106.165095">
			<ele>1668.33</ele>
			<time>2019-03-24T16:07:44.35Z</time>
		</trkpt>
		<trkpt lat="35.833645" lon="-106.164993">
			<ele>1668.53</ele>
			<time>2019-03-24T16:07:52.76Z</time>
		</trkpt>
		<trkpt lat="35.833625" lon="-106.164878">
			<ele>1668.84</ele>
			<time>2019-03-24T16:08:01.79Z</time>
		</trkpt>
		<trkpt lat="35.833629" lon="-106.164758">
			<ele>1669.07</ele>
			<time>2019-03-24T16:08:10.83Z</time>
		</trkpt>
		<trkpt lat="35.833586" lon="-106.164651">
			<ele>1669.14</ele>
			<time>2019-03-24T16:08:18.78Z</time>
		</trkpt>
		<trkpt lat="35.833524" lon="-106.164560">
			<ele>1669.11</ele>
			<time>2019-03-24T16:08:26.05Z</time>
		</trkpt>
		<trkpt lat="35.833457" lon="-106.164465">
			<ele>1669.13</ele>
			<time>2019-03-24T16:08:33.81Z</time>
		</trkpt>
		<trkpt lat="35.833399" lon="-106.164370">
			<ele>1669.36</ele>
			<time>2019-03-24T16:08:41.07Z</time>
		</trkpt>
		<trkpt lat="35.833331" lon="-106.164294">
			<ele>1669.83</ele>
			<time>2019-03-24T16:08:48.12Z</time>
		</trkpt>
		<trkpt lat="35.833258" lon="-106.164228">
			<ele>1670.43</ele>
			<time>2019-03-24T16:08:55.15Z</time>
		</trkpt>
		<trkpt lat="35.833165" lon="-106.164241">
			<ele>1671.08</ele>
			<time>2019-03-24T16:09:02.82Z</time>
		</trkpt>
		<trkpt lat="35.833095" lon="-106.164320">
			<ele>1671.76</ele>
			<time>2019-03-24T16:09:11.05Z</time>
		</trkpt>
		<trkpt lat="35.833122" lon="-106.164430">
			<ele>1672.55</ele>
			<time>2019-03-24T16:09:19.55Z</time>
		</trkpt>
		<trkpt lat="35.833154" lon="-106.164546">
			<ele>1673.55</ele>
			<time>2019-03-24T16:09:28.31Z</time>
		</trkpt>
		<trkpt lat="35.833154" lon="-106.164667">
			<ele>1674.75</ele>
			<time>2019-03-24T16:09:36.64Z</time>
		</trkpt>
		<trkpt lat="35.833100" lon="-106.164762">
			<ele>1675.97</ele>
			<time>2019-03-24T16:09:44.99Z</time>
		</trkpt>
		<trkpt lat="35.833038" lon="-106.164843">
			<ele>1677.13</ele>
			<time>2019-03-24T16:09:53.98Z</time>
		</trkpt>
		<trkpt lat="35.833038" lon="-106.164843">
			<ele>1678.19</ele>
			<time>2019-03-24T16:09:55.98Z</time>
		</trkpt>
		<trkpt lat="35.833038" lon="-106.164843">
			<ele>1678.52</ele>
			<time>2019-03-24T16:09:56.37Z</time>
		</trkpt>
		<trkpt lat="35.833038" lon="-106.164843">
			<ele>1676.76</ele>
			<time>2019-03-24T16:10:08.98Z</time>
		</trkpt>
		<trkpt lat="35.833038" lon="-106.164843">
			<ele>1676.15</ele>
			<time>2019-03-24T16:10:09.08Z</time>
		</trkpt>
		<trkpt lat="35.833066" lon="-106.165022">
			<ele>1675.87</ele>
			<time>2019-03-24T16:10:23.57Z</time>
		</trkpt>
		<trkpt lat="35.833084" lon="-106.165132">
			<ele>1676.76</ele>
			<time>2019-03-24T16:10:29.48Z</time>
		</trkpt>
		<trkpt lat="35.833010" lon="-106.165198">
			<ele>1679.45</ele>
			<time>2019-03-24T16:10:34.98Z</time>
		</trkpt>
		<trkpt lat="35.833010" lon="-106.165198">
			<ele>1682.43</ele>
			<time>2019-03-24T16:10:36.98Z</time>
		</trkpt>
		<trkpt lat="35.833010" lon="-106.165198">
			<ele>1683.56</ele>
			<time>2019-03-24T16:10:38.64Z</time>
		</trkpt>
		<trkpt lat="35.832914" lon="-106.165178">
			<ele>1681.28</ele>
			<time>2019-03-24T16:10:53.48Z</time>
		</trkpt>
		<trkpt lat="35.832824" lon="-106.165187">
			<ele>1681.10</ele>
			<time>2019-03-24T16:11:01.54Z</time>
		</trkpt>
		<trkpt lat="35.832756" lon="-106.165262">
			<ele>1682.55</ele>
			<time>2019-03-24T16:11:09.59Z</time>
		</trkpt>
		<trkpt lat="35.832667" lon="-106.165303">
			<ele>1684.29</ele>
			<time>2019-03-24T16:11:18.52Z</time>
		</trkpt>
		<trkpt lat="35.832574" lon="-106.165281">
			<ele>1685.09</ele>
			<time>2019-03-24T16:11:27.70Z</time>
		</trkpt>
		<trkpt lat="35.832481" lon="-106.165272">
			<ele>1685.16</ele>
			<time>2019-03-24T16:11:36.26Z</time>
		</trkpt>
		<trkpt lat="35.832397" lon="-106.165328">
			<ele>1684.98</ele>
			<time>2019-03-24T16:11:44.07Z</time>
		</trkpt>
		<trkpt lat="35.832337" lon="-106.165410">
			<ele>1684.87</ele>
			<time>2019-03-24T16:11:51.62Z</time>
		</trkpt>
		<trkpt lat="35.832279" lon="-106.165502">
			<ele>1685.02</ele>
			<time>2019-03-24T16:12:00.23Z</time>
		</trkpt>
		<trkpt lat="35.832221" lon="-106.165589">
			<ele>1685.65</ele>
			<time>2019-03-24T16:12:09.25Z</time>
		</trkpt>
		<trkpt lat="35.832166" lon="-106.165696">
			<ele>1686.76</ele>
			<time>2019-03-24T16:12:18.54Z</time>
		</trkpt>
		<trkpt lat="35.832074" lon="-106.165731">
			<ele>1688.06</ele>
			<time>2019-03-24T16:12:27Z</time>
		</trkpt>
		<trkpt lat="35.831980" lon="-106.165734">
			<ele>1689.29</ele>
			<time>2019-03-24T16:12:35.71Z</time>
		</trkpt>
		<trkpt lat="35.831890" lon="-106.165751">
			<ele>1690.37</ele>
			<time>2019-03-24T16:12:43.90Z</time>
		</trkpt>
		<trkpt lat="35.831794" lon="-106.165775">
			<ele>1691.29</ele>
			<time>2019-03-24T16:12:52.01Z</time>
		</trkpt>
		<trkpt lat="35.831703" lon="-106.165812">
			<ele>1692.24</ele>
			<time>2019-03-24T16:12:59.99Z</time>
		</trkpt>
		<trkpt lat="35.831703" lon="-106.165812">
			<ele>1693.21</ele>
			<time>2019-03-24T16:13:02.99Z</time>
		</trkpt>
		<trkpt lat="35.831703" lon="-106.165812">
			<ele>1693.50</ele>
			<time>2019-03-24T16:13:07.25Z</time>
		</trkpt>
		<trkpt lat="35.831581" lon="-106.165816">
			<ele>1691.75</ele>
			<time>2019-03-24T16:13:27.60Z</time>
		</trkpt>
		<trkpt lat="35.831492" lon="-106.165765">
			<ele>1692.26</ele>
			<time>2019-03-24T16:13:38.98Z</time>
		</trkpt>
		<trkpt lat="35.831410" lon="-106.165695">
			<ele>1695.04</ele>
			<time>2019-03-24T16:13:49.73Z</time>
		</trkpt>
		<trkpt lat="35.831350" lon="-106.165599">
			<ele>1698.29</ele>
			<time>2019-03-24T16:13:59.44Z</time>
		</trkpt>
		<trkpt lat="35.831260" lon="-106.165552">
			<ele>1700.00</ele>
			<time>2019-03-24T16:14:09.51Z</time>
		</trkpt>
		<trkpt lat="35.831222" lon="-106.165445">
			<ele>1700.22</ele>
			<time>2019-03-24T16:14:20.06Z</time>
		</trkpt>
		<trkpt lat="35.831167" lon="-106.165353">
			<ele>1699.83</ele>
			<time>2019-03-24T16:14:30.05Z</time>
		</trkpt>
		<trkpt lat="35.831102" lon="-106.165261">
			<ele>1699.52</ele>
			<time>2019-03-24T16:14:39.87Z</time>
		</trkpt>
		<trkpt lat="35.831028" lon="-106.165186">
			<ele>1699.50</ele>
			<time>2019-03-24T16:14:48.89Z</time>
		</trkpt>
		<trkpt lat="35.830936" lon="-106.165162">
			<ele>1699.71</ele>
			<time>2019-03-24T16:14:57.38Z</time>
		</trkpt>
		<trkpt lat="35.830840" lon="-106.165145">
			<ele>1700.03</ele>
			<time>2019-03-24T16:15:05.59Z</time>
		</trkpt>
		<trkpt lat="35.830750" lon="-106.165164">
			<ele>1700.30</ele>
			<time>2019-03-24T16:15:13.16Z</time>
		</trkpt>
		<trkpt lat="35.830659" lon="-106.165141">
			<ele>1700.27</ele>
			<time>2019-03-24T16:15:22.32Z</time>
		</trkpt>
		<trkpt lat="35.830631" lon="-106.165029">
			<ele>1699.48</ele>
			<time>2019-03-24T16:15:32.91Z</time>
		</trkpt>
		<trkpt lat="35.830587" lon="-106.164919">
			<ele>1698.00</ele>
			<time>2019-03-24T16:15:43.98Z</time>
		</trkpt>
		<trkpt lat="35.830542" lon="-106.164822">
			<ele>1696.79</ele>
			<time>2019-03-24T16:15:52.34Z</time>
		</trkpt>
		<trkpt lat="35.830453" lon="-106.164758">
			<ele>1696.46</ele>
			<time>2019-03-24T16:16:00.49Z</time>
		</trkpt>
		<trkpt lat="35.830356" lon="-106.164737">
			<ele>1696.78</ele>
			<time>2019-03-24T16:16:07.77Z</time>
		</trkpt>
		<trkpt lat="35.830261" lon="-106.164753">
			<ele>1697.31</ele>
			<time>2019-03-24T16:16:15.35Z</time>
		</trkpt>
		<trkpt lat="35.830215" lon="-106.164854">
			<ele>1697.69</ele>
			<time>2019-03-24T16:16:23.57Z</time>
		</trkpt>
		<trkpt lat="35.830230" lon="-106.164973">
			<ele>1697.84</ele>
			<time>2019-03-24T16:16:32.84Z</time>
		</trkpt>
		<trkpt lat="35.830213" lon="-106.165084">
			<ele>1697.72</ele>
			<time>2019-03-24T16:16:41.50Z</time>
		</trkpt>
		<trkpt lat="35.830132" lon="-106.165145">
			<ele>1697.07</ele>
			<time>2019-03-24T16:16:50.54Z</time>
		</trkpt>
		<trkpt lat="35.830097" lon="-106.165253">
			<ele>1695.92</ele>
			<time>2019-03-24T16:16:59.83Z</time>
		</trkpt>
		<trkpt lat="35.830059" lon="-106.165354">
			<ele>1694.90</ele>
			<time>2019-03-24T16:17:10.12Z</time>
		</trkpt>
		<trkpt lat="35.829999" lon="-106.165446">
			<ele>1694.24</ele>
			<time>2019-03-24T16:17:21.61Z</time>
		</trkpt>
		<trkpt lat="35.829961" lon="-106.165553">
			<ele>1693.65</ele>
			<time>2019-03-24T16:17:31.47Z</time>
		</trkpt>
		<trkpt lat="35.829898" lon="-106.165635">
			<ele>1692.84</ele>
			<time>2019-03-24T16:17:40.98Z</time>
		</trkpt>
		<trkpt lat="35.829898" lon="-106.165635">
			<ele>1691.80</ele>
			<time>2019-03-24T16:17:50.99Z</time>
		</trkpt>
		<trkpt lat="35.829898" lon="-106.165635">
			<ele>1690.84</ele>
			<time>2019-03-24T16:17:59.23Z</time>
		</trkpt>
		<trkpt lat="35.829747" lon="-106.165629">
			<ele>1690.17</ele>
			<time>2019-03-24T16:18:24.09Z</time>
		</trkpt>
		<trkpt lat="35.829662" lon="-106.165584">
			<ele>1689.45</ele>
			<time>2019-03-24T16:18:32.85Z</time>
		</trkpt>
		<trkpt lat="35.829577" lon="-106.165541">
			<ele>1688.42</ele>
			<time>2019-03-24T16:18:42.01Z</time>
		</trkpt>
		<trkpt lat="35.829479" lon="-106.165534">
			<ele>1687.56</ele>
			<time>2019-03-24T16:18:52Z</time>
		</trkpt>
		<trkpt lat="35.829387" lon="-106.165584">
			<ele>1687.33</ele>
			<time>2019-03-24T16:19:02.24Z</time>
		</trkpt>
		<trkpt lat="35.829372" lon="-106.165694">
			<ele>1687.35</ele>
			<time>2019-03-24T16:19:11.24Z</time>
		</trkpt>
		<trkpt lat="35.829318" lon="-106.165792">
			<ele>1687.02</ele>
			<time>2019-03-24T16:19:21.28Z</time>
		</trkpt>
		<trkpt lat="35.829243" lon="-106.165866">
			<ele>1686.07</ele>
			<time>2019-03-24T16:19:31.75Z</time>
		</trkpt>
		<trkpt lat="35.829170" lon="-106.165932">
			<ele>1684.63</ele>
			<time>2019-03-24T16:19:41.38Z</time>
		</trkpt>
		<trkpt lat="35.829077" lon="-106.165942">
			<ele>1683.13</ele>
			<time>2019-03-24T16:19:50.99Z</time>
		</trkpt>
		<trkpt lat="35.829077" lon="-106.165942">
			<ele>1682.06</ele>
			<time>2019-03-24T16:19:52.99Z</time>
		</trkpt>
		<trkpt lat="35.829077" lon="-106.165942">
			<ele>1681.49</ele>
			<time>2019-03-24T16:19:55.54Z</time>
		</trkpt>
		<trkpt lat="35.828984" lon="-106.165889">
			<ele>1680.59</ele>
			<time>2019-03-24T16:20:15.31Z</time>
		</trkpt>
		<trkpt lat="35.828894" lon="-106.165841">
			<ele>1680.35</ele>
			<time>2019-03-24T16:20:22.89Z</time>
		</trkpt>
		<trkpt lat="35.828798" lon="-106.165848">
			<ele>1680.62</ele>
			<time>2019-03-24T16:20:30.01Z</time>
		</trkpt>
		<trkpt lat="35.828699" lon="-106.165878">
			<ele>1681.21</ele>
			<time>2019-03-24T16:20:37.70Z</time>
		</trkpt>
		<trkpt lat="35.828613" lon="-106.165925">
			<ele>1681.83</ele>
			<time>2019-03-24T16:20:44.99Z</time>
		</trkpt>
		<trkpt lat="35.828613" lon="-106.165925">
			<ele>1682.33</ele>
			<time>2019-03-24T16:20:46.99Z</time>
		</trkpt>
		<trkpt lat="35.828613" lon="-106.165925">
			<ele>1682.29</ele>
			<time>2019-03-24T16:20:55.95Z</time>
		</trkpt>
		<trkpt lat="35.828516" lon="-106.165963">
			<ele>1680.73</ele>
			<time>2019-03-24T16:21:08.84Z</time>
		</trkpt>
		<trkpt lat="35.828428" lon="-106.166010">
			<ele>1680.69</ele>
			<time>2019-03-24T16:21:15.99Z</time>
		</trkpt>
		<trkpt lat="35.828428" lon="-106.166010">
			<ele>1681.58</ele>
			<time>2019-03-24T16:21:18.99Z</time>
		</trkpt>
		<trkpt lat="35.828428" lon="-106.166010">
			<ele>1682.16</ele>
			<time>2019-03-24T16:21:25.04Z</time>
		</trkpt>
		<trkpt lat="35.828428" lon="-106.166010">
			<ele>1680.29</ele>
			<time>2019-03-24T16:21:34.99Z</time>
		</trkpt>
		<trkpt lat="35.828428" lon="-106.166010">
			<ele>1679.60</ele>
			<time>2019-03-24T16:21:35.09Z</time>
		</trkpt>
		<trkpt lat="35.828371" lon="-106.166112">
			<ele>1679.38</ele>
			<time>2019-03-24T16:21:35.99Z</time>
		</trkpt>
		<trkpt lat="35.828371" lon="-106.166112">
			<ele>1679.23</ele>
			<time>2019-03-24T16:21:36.99Z</time>
		</trkpt>
		<trkpt lat="35.828371" lon="-106.166112">
			<ele>1678.76</ele>
			<time>2019-03-24T16:21:39.67Z</time>
		</trkpt>
		<trkpt lat="35.828311" lon="-106.166203">
			<ele>1677.46</ele>
			<time>2019-03-24T16:21:54.79Z</time>
		</trkpt>
		<trkpt lat="35.828234" lon="-106.166270">
			<ele>1677.75</ele>
			<time>2019-03-24T16:22:03.51Z</time>
		</trkpt>
		<trkpt lat="35.828140" lon="-106.166302">
			<ele>1679.13</ele>
			<time>2019-03-24T16:22:12.33Z</time>
		</trkpt>
		<trkpt lat="35.828060" lon="-106.166360">
			<ele>1680.59</ele>
			<time>2019-03-24T16:22:20.99Z</time>
		</trkpt>
		<trkpt lat="35.828074" lon="-106.166479">
			<ele>1681.22</ele>
			<time>2019-03-24T16:22:30.68Z</time>
		</trkpt>
		<trkpt lat="35.828057" lon="-106.166592">
			<ele>1681.14</ele>
			<time>2019-03-24T16:22:40.30Z</time>
		</trkpt>
		<trkpt lat="35.827992" lon="-106.166674">
			<ele>1680.53</ele>
			<time>2019-03-24T16:22:49.58Z</time>
		</trkpt>
		<trkpt lat="35.827996" lon="-106.166795">
			<ele>1679.64</ele>
			<time>2019-03-24T16:22:59.47Z</time>
		</trkpt>
		<trkpt lat="35.828031" lon="-106.166904">
			<ele>1678.86</ele>
			<time>2019-03-24T16:23:07.80Z</time>
		</trkpt>
		<trkpt lat="35.827930" lon="-106.166930">
			<ele>1678.47</ele>
			<time>2019-03-24T16:23:16.86Z</time>
		</trkpt>
		<trkpt lat="35.827938" lon="-106.167042">
			<ele>1678.45</ele>
			<time>2019-03-24T16:23:27.43Z</time>
		</trkpt>
		<trkpt lat="35.827845" lon="-106.167047">
			<ele>1678.80</ele>
			<time>2019-03-24T16:23:38.68Z</time>
		</trkpt>
		<trkpt lat="35.827757" lon="-106.167097">
			<ele>1679.54</ele>
			<time>2019-03-24T16:23:48.61Z</time>
		</trkpt>
		<trkpt lat="35.827735" lon="-106.167210">
			<ele>1680.61</ele>
			<time>2019-03-24T16:23:56.66Z</time>
		</trkpt>
		<trkpt lat="35.827704" lon="-106.167318">
			<ele>1681.91</ele>
			<time>2019-03-24T16:24:03.98Z</time>
		</trkpt>
		<trkpt lat="35.827704" lon="-106.167318">
			<ele>1683.14</ele>
			<time>2019-03-24T16:24:16.98Z</time>
		</trkpt>
		<trkpt lat="35.827704" lon="-106.167318">
			<ele>1683.52</ele>
			<time>2019-03-24T16:25:48.05Z</time>
		</trkpt>
		<trkpt lat="35.827636" lon="-106.167425">
			<ele>1682.76</ele>
			<time>2019-03-24T16:26:40.47Z</time>
		</trkpt>
		<trkpt lat="35.827698" lon="-106.167520">
			<ele>1682.87</ele>
			<time>2019-03-24T16:26:52.06Z</time>
		</trkpt>
		<trkpt lat="35.827747" lon="-106.167616">
			<ele>1685.33</ele>
			<time>2019-03-24T16:27:00.88Z</time>
		</trkpt>
		<trkpt lat="35.827833" lon="-106.167660">
			<ele>1688.42</ele>
			<time>2019-03-24T16:27:10.20Z</time>
		</trkpt>
		<trkpt lat="35.827916" lon="-106.167724">
			<ele>1690.20</ele>
			<time>2019-03-24T16:27:20.20Z</time>
		</trkpt>
		<trkpt lat="35.827983" lon="-106.167806">
			<ele>1690.80</ele>
			<time>2019-03-24T16:27:30.86Z</time>
		</trkpt>
		<trkpt lat="35.828037" lon="-106.167908">
			<ele>1690.78</ele>
			<time>2019-03-24T16:27:41.99Z</time>
		</trkpt>
		<trkpt lat="35.828037" lon="-106.167908">
			<ele>1690.60</ele>
			<time>2019-03-24T16:27:55.99Z</time>
		</trkpt>
		<trkpt lat="35.828037" lon="-106.167908">
			<ele>1690.25</ele>
			<time>2019-03-24T16:28:56.98Z</time>
		</trkpt>
		<trkpt lat="35.828037" lon="-106.167908">
			<ele>1689.59</ele>
			<time>2019-03-24T16:28:57.08Z</time>
		</trkpt>
		<trkpt lat="35.827958" lon="-106.168038">
			<ele>1688.93</ele>
			<time>2019-03-24T16:29:44.59Z</time>
		</trkpt>
		<trkpt lat="35.827866" lon="-106.168035">
			<ele>1689.06</ele>
			<time>2019-03-24T16:29:53.68Z</time>
		</trkpt>
		<trkpt lat="35.827773" lon="-106.168020">
			<ele>1690.33</ele>
			<time>2019-03-24T16:30:03.04Z</time>
		</trkpt>
		<trkpt lat="35.827705" lon="-106.168101">
			<ele>1692.08</ele>
			<time>2019-03-24T16:30:11.86Z</time>
		</trkpt>
		<trkpt lat="35.827646" lon="-106.168194">
			<ele>1693.61</ele>
			<time>2019-03-24T16:30:20.59Z</time>
		</trkpt>
		<trkpt lat="35.827559" lon="-106.168223">
			<ele>1694.79</ele>
			<time>2019-03-24T16:30:28.26Z</time>
		</trkpt>
		<trkpt lat="35.827470" lon="-106.168261">
			<ele>1695.73</ele>
			<time>2019-03-24T16:30:36.08Z</time>
		</trkpt>
		<trkpt lat="35.827379" lon="-106.168281">
			<ele>1696.65</ele>
			<time>2019-03-24T16:30:44.71Z</time>
		</trkpt>
		<trkpt lat="35.827337" lon="-106.168391">
			<ele>1697.73</ele>
			<time>2019-03-24T16:30:53.83Z</time>
		</trkpt>
		<trkpt lat="35.827355" lon="-106.168500">
			<ele>1698.95</ele>
			<time>2019-03-24T16:31:01.28Z</time>
		</trkpt>
		<trkpt lat="35.827354" lon="-106.168624">
			<ele>1700.05</ele>
			<time>2019-03-24T16:31:09.79Z</time>
		</trkpt>
		<trkpt lat="35.827291" lon="-106.168719">
			<ele>1700.89</ele>
			<time>2019-03-24T16:31:18.98Z</time>
		</trkpt>
		<trkpt lat="35.827291" lon="-106.168719">
			<ele>1701.48</ele>
			<time>2019-03-24T16:31:22.98Z</time>
		</trkpt>
		<trkpt lat="35.827291" lon="-106.168719">
			<ele>1701.46</ele>
			<time>2019-03-24T16:32:33.93Z</time>
		</trkpt>
		<trkpt lat="35.827168" lon="-106.168693">
			<ele>1699.87</ele>
			<time>2019-03-24T16:32:57.90Z</time>
		</trkpt>
		<trkpt lat="35.827085" lon="-106.168649">
			<ele>1699.52</ele>
			<time>2019-03-24T16:33:07.44Z</time>
		</trkpt>
		<trkpt lat="35.826997" lon="-106.168601">
			<ele>1699.63</ele>
			<time>2019-03-24T16:33:17.39Z</time>
		</trkpt>
		<trkpt lat="35.826904" lon="-106.168581">
			<ele>1699.83</ele>
			<time>2019-03-24T16:33:26.25Z</time>
		</trkpt>
		<trkpt lat="35.826816" lon="-106.168536">
			<ele>1699.84</ele>
			<time>2019-03-24T16:33:35.38Z</time>
		</trkpt>
		<trkpt lat="35.826741" lon="-106.168460">
			<ele>1699.72</ele>
			<time>2019-03-24T16:33:45.32Z</time>
		</trkpt>
		<trkpt lat="35.826675" lon="-106.168367">
			<ele>1699.64</ele>
			<time>2019-03-24T16:33:56.06Z</time>
		</trkpt>
		<trkpt lat="35.826587" lon="-106.168399">
			<ele>1699.72</ele>
			<time>2019-03-24T16:34:05.45Z</time>
		</trkpt>
		<trkpt lat="35.826572" lon="-106.168514">
			<ele>1700.05</ele>
			<time>2019-03-24T16:34:14.72Z</time>
		</trkpt>
		<trkpt lat="35.826580" lon="-106.168631">
			<ele>1700.54</ele>
			<time>2019-03-24T16:34:24.67Z</time>
		</trkpt>
		<trkpt lat="35.826585" lon="-106.168745">
			<ele>1700.93</ele>
			<time>2019-03-24T16:34:34.66Z</time>
		</trkpt>
		<trkpt lat="35.826531" lon="-106.168835">
			<ele>1700.88</ele>
			<time>2019-03-24T16:34:43.56Z</time>
		</trkpt>
		<trkpt lat="35.826438" lon="-106.168888">
			<ele>1700.35</ele>
			<time>2019-03-24T16:34:52.60Z</time>
		</trkpt>
		<trkpt lat="35.826349" lon="-106.168924">
			<ele>1699.74</ele>
			<time>2019-03-24T16:35:00.78Z</time>
		</trkpt>
		<trkpt lat="35.826266" lon="-106.168972">
			<ele>1699.43</ele>
			<time>2019-03-24T16:35:09.03Z</time>
		</trkpt>
		<trkpt lat="35.826174" lon="-106.169021">
			<ele>1699.42</ele>
			<time>2019-03-24T16:35:17.82Z</time>
		</trkpt>
		<trkpt lat="35.826086" lon="-106.169061">
			<ele>1699.49</ele>
			<time>2019-03-24T16:35:26.10Z</time>
		</trkpt>
		<trkpt lat="35.826000" lon="-106.169027">
			<ele>1699.51</ele>
			<time>2019-03-24T16:35:34.28Z</time>
		</trkpt>
		<trkpt lat="35.825911" lon="-106.168985">
			<ele>1699.47</ele>
			<time>2019-03-24T16:35:43.27Z</time>
		</trkpt>
		<trkpt lat="35.825825" lon="-106.169021">
			<ele>1699.53</ele>
			<time>2019-03-24T16:35:52.38Z</time>
		</trkpt>
		<trkpt lat="35.825790" lon="-106.169130">
			<ele>1699.80</ele>
			<time>2019-03-24T16:36:02.17Z</time>
		</trkpt>
		<trkpt lat="35.825739" lon="-106.169226">
			<ele>1700.17</ele>
			<time>2019-03-24T16:36:11.07Z</time>
		</trkpt>
		<trkpt lat="35.825644" lon="-106.169261">
			<ele>1700.42</ele>
			<time>2019-03-24T16:36:19.88Z</time>
		</trkpt>
		<trkpt lat="35.825558" lon="-106.169320">
			<ele>1700.48</ele>
			<time>2019-03-24T16:36:28.49Z</time>
		</trkpt>
		<trkpt lat="35.825516" lon="-106.169422">
			<ele>1700.62</ele>
			<time>2019-03-24T16:36:36.79Z</time>
		</trkpt>
		<trkpt lat="35.825512" lon="-106.169534">
			<ele>1701.11</ele>
			<time>2019-03-24T16:36:45.40Z</time>
		</trkpt>
		<trkpt lat="35.825503" lon="-106.169658">
			<ele>1701.82</ele>
			<time>2019-03-24T16:36:55.54Z</time>
		</trkpt>
		<trkpt lat="35.825532" lon="-106.169770">
			<ele>1702.46</ele>
			<time>2019-03-24T16:37:05.34Z</time>
		</trkpt>
		<trkpt lat="35.825547" lon="-106.169881">
			<ele>1702.94</ele>
			<time>2019-03-24T16:37:13.98Z</time>
		</trkpt>
		<trkpt lat="35.825532" lon="-106.169998">
			<ele>1703.32</ele>
			<time>2019-03-24T16:37:22.77Z</time>
		</trkpt>
		<trkpt lat="35.825491" lon="-106.170104">
			<ele>1703.61</ele>
			<time>2019-03-24T16:37:31.41Z</time>
		</trkpt>
		<trkpt lat="35.825410" lon="-106.170153">
			<ele>1703.78</ele>
			<time>2019-03-24T16:37:39.16Z</time>
		</trkpt>
		<trkpt lat="35.825310" lon="-106.170167">
			<ele>1703.74</ele>
			<time>2019-03-24T16:37:47.25Z</time>
		</trkpt>
		<trkpt lat="35.825237" lon="-106.170103">
			<ele>1703.40</ele>
			<time>2019-03-24T16:37:54.73Z</time>
		</trkpt>
		<trkpt lat="35.825203" lon="-106.169991">
			<ele>1702.91</ele>
			<time>2019-03-24T16:38:03.27Z</time>
		</trkpt>
		<trkpt lat="35.825150" lon="-106.169888">
			<ele>1702.58</ele>
			<time>2019-03-24T16:38:12.60Z</time>
		</trkpt>
		<trkpt lat="35.825058" lon="-106.169932">
			<ele>1702.62</ele>
			<time>2019-03-24T16:38:22.72Z</time>
		</trkpt>
		<trkpt lat="35.824961" lon="-106.169961">
			<ele>1703.00</ele>
			<time>2019-03-24T16:38:32.94Z</time>
		</trkpt>
		<trkpt lat="35.824867" lon="-106.169980">
			<ele>1703.44</ele>
			<time>2019-03-24T16:38:41.60Z</time>
		</trkpt>
		<trkpt lat="35.824773" lon="-106.170002">
			<ele>1703.72</ele>
			<time>2019-03-24T16:38:50.30Z</time>
		</trkpt>
		<trkpt lat="35.824691" lon="-106.170055">
			<ele>1703.88</ele>
			<time>2019-03-24T16:38:59.15Z</time>
		</trkpt>
		<trkpt lat="35.824633" lon="-106.170150">
			<ele>1704.02</ele>
			<time>2019-03-24T16:39:08.28Z</time>
		</trkpt>
		<trkpt lat="35.824589" lon="-106.170267">
			<ele>1704.18</ele>
			<time>2019-03-24T16:39:17.84Z</time>
		</trkpt>
		<trkpt lat="35.824550" lon="-106.170371">
			<ele>1704.29</ele>
			<time>2019-03-24T16:39:27.37Z</time>
		</trkpt>
		<trkpt lat="35.824548" lon="-106.170484">
			<ele>1704.35</ele>
			<time>2019-03-24T16:39:37.32Z</time>
		</trkpt>
		<trkpt lat="35.824494" lon="-106.170574">
			<ele>1704.36</ele>
			<time>2019-03-24T16:39:45.77Z</time>
		</trkpt>
		<trkpt lat="35.824424" lon="-106.170663">
			<ele>1704.41</ele>
			<time>2019-03-24T16:39:54.88Z</time>
		</trkpt>
		<trkpt lat="35.824327" lon="-106.170689">
			<ele>1704.56</ele>
			<time>2019-03-24T16:40:04.13Z</time>
		</trkpt>
		<trkpt lat="35.824242" lon="-106.170647">
			<ele>1704.77</ele>
			<time>2019-03-24T16:40:12.55Z</time>
		</trkpt>
		<trkpt lat="35.824152" lon="-106.170599">
			<ele>1704.88</ele>
			<time>2019-03-24T16:40:21.35Z</time>
		</trkpt>
		<trkpt lat="35.824051" lon="-106.170627">
			<ele>1704.86</ele>
			<time>2019-03-24T16:40:30.82Z</time>
		</trkpt>
		<trkpt lat="35.823977" lon="-106.170549">
			<ele>1704.84</ele>
			<time>2019-03-24T16:40:40.10Z</time>
		</trkpt>
		<trkpt lat="35.823917" lon="-106.170459">
			<ele>1704.98</ele>
			<time>2019-03-24T16:40:49.51Z</time>
		</trkpt>
		<trkpt lat="35.823822" lon="-106.170460">
			<ele>1705.42</ele>
			<time>2019-03-24T16:40:59.74Z</time>
		</trkpt>
		<trkpt lat="35.823831" lon="-106.170579">
			<ele>1706.30</ele>
			<time>2019-03-24T16:41:10.10Z</time>
		</trkpt>
		<trkpt lat="35.823847" lon="-106.170695">
			<ele>1707.47</ele>
			<time>2019-03-24T16:41:19.84Z</time>
		</trkpt>
		<trkpt lat="35.823838" lon="-106.170806">
			<ele>1708.24</ele>
			<time>2019-03-24T16:41:28.92Z</time>
		</trkpt>
		<trkpt lat="35.823860" lon="-106.170927">
			<ele>1708.23</ele>
			<time>2019-03-24T16:41:38.99Z</time>
		</trkpt>
		<trkpt lat="35.823769" lon="-106.170960">
			<ele>1707.74</ele>
			<time>2019-03-24T16:41:49.20Z</time>
		</trkpt>
		<trkpt lat="35.823679" lon="-106.170937">
			<ele>1707.18</ele>
			<time>2019-03-24T16:41:58.26Z</time>
		</trkpt>
		<trkpt lat="35.823590" lon="-106.170963">
			<ele>1706.93</ele>
			<time>2019-03-24T16:42:05.91Z</time>
		</trkpt>
		<trkpt lat="35.823506" lon="-106.171020">
			<ele>1707.26</ele>
			<time>2019-03-24T16:42:13.92Z</time>
		</trkpt>
		<trkpt lat="35.823414" lon="-106.171060">
			<ele>1708.13</ele>
			<time>2019-03-24T16:42:22.74Z</time>
		</trkpt>
		<trkpt lat="35.823337" lon="-106.171132">
			<ele>1709.17</ele>
			<time>2019-03-24T16:42:32.77Z</time>
		</trkpt>
		<trkpt lat="35.823279" lon="-106.171227">
			<ele>1710.00</ele>
			<time>2019-03-24T16:42:43.06Z</time>
		</trkpt>
		<trkpt lat="35.823227" lon="-106.171323">
			<ele>1710.47</ele>
			<time>2019-03-24T16:42:52.45Z</time>
		</trkpt>
		<trkpt lat="35.823191" lon="-106.171434">
			<ele>1710.69</ele>
			<time>2019-03-24T16:43:02.96Z</time>
		</trkpt>
		<trkpt lat="35.823136" lon="-106.171528">
			<ele>1710.82</ele>
			<time>2019-03-24T16:43:14.98Z</time>
		</trkpt>
		<trkpt lat="35.823136" lon="-106.171528">
			<ele>1710.92</ele>
			<time>2019-03-24T16:43:19.98Z</time>
		</trkpt>
		<trkpt lat="35.823136" lon="-106.171528">
			<ele>1710.68</ele>
			<time>2019-03-24T16:43:20.08Z</time>
		</trkpt>
		<trkpt lat="35.823053" lon="-106.171600">
			<ele>1709.21</ele>
			<time>2019-03-24T16:43:29.98Z</time>
		</trkpt>
		<trkpt lat="35.823053" lon="-106.171600">
			<ele>1708.86</ele>
			<time>2019-03-24T16:43:38.98Z</time>
		</trkpt>
		<trkpt lat="35.823053" lon="-106.171600">
			<ele>1708.57</ele>
			<time>2019-03-24T16:43:39.08Z</time>
		</trkpt>
		<trkpt lat="35.822969" lon="-106.171653">
			<ele>1708.02</ele>
			<time>2019-03-24T16:45:04.03Z</time>
		</trkpt>
		<trkpt lat="35.822950" lon="-106.171763">
			<ele>1708.51</ele>
			<time>2019-03-24T16:45:13.07Z</time>
		</trkpt>
		<trkpt lat="35.822925" lon="-106.171874">
			<ele>1710.99</ele>
			<time>2019-03-24T16:45:21.56Z</time>
		</trkpt>
		<trkpt lat="35.822893" lon="-106.171986">
			<ele>1713.83</ele>
			<time>2019-03-24T16:45:30.81Z</time>
		</trkpt>
		<trkpt lat="35.822871" lon="-106.172101">
			<ele>1715.37</ele>
			<time>2019-03-24T16:45:39.99Z</time>
		</trkpt>
		<trkpt lat="35.822891" lon="-106.172216">
			<ele>1715.87</ele>
			<time>2019-03-24T16:45:48.83Z</time>
		</trkpt>
		<trkpt lat="35.822900" lon="-106.172335">
			<ele>1715.95</ele>
			<time>2019-03-24T16:45:58.12Z</time>
		</trkpt>
		<trkpt lat="35.822942" lon="-106.172449">
			<ele>1715.93</ele>
			<time>2019-03-24T16:46:07.92Z</time>
		</trkpt>
		<trkpt lat="35.822960" lon="-106.172564">
			<ele>1715.86</ele>
			<time>2019-03-24T16:46:16.69Z</time>
		</trkpt>
		<trkpt lat="35.822981" lon="-106.172676">
			<ele>1715.73</ele>
			<time>2019-03-24T16:46:25.03Z</time>
		</trkpt>
		<trkpt lat="35.822963" lon="-106.172789">
			<ele>1715.43</ele>
			<time>2019-03-24T16:46:33.58Z</time>
		</trkpt>
		<trkpt lat="35.822938" lon="-106.172904">
			<ele>1714.85</ele>
			<time>2019-03-24T16:46:42.76Z</time>
		</trkpt>
		<trkpt lat="35.822858" lon="-106.172976">
			<ele>1714.10</ele>
			<time>2019-03-24T16:46:52Z</time>
		</trkpt>
		<trkpt lat="35.822768" lon="-106.173022">
			<ele>1713.39</ele>
			<time>2019-03-24T16:47:00.84Z</time>
		</trkpt>
		<trkpt lat="35.822686" lon="-106.173086">
			<ele>1712.99</ele>
			<time>2019-03-24T16:47:09.84Z</time>
		</trkpt>
		<trkpt lat="35.822647" lon="-106.173187">
			<ele>1713.03</ele>
			<time>2019-03-24T16:47:18.62Z</time>
		</trkpt>
		<trkpt lat="35.822625" lon="-106.173302">
			<ele>1713.37</ele>
			<time>2019-03-24T16:47:26.91Z</time>
		</trkpt>
		<trkpt lat="35.822574" lon="-106.173394">
			<ele>1713.61</ele>
			<time>2019-03-24T16:47:34.77Z</time>
		</trkpt>
		<trkpt lat="35.822477" lon="-106.173382">
			<ele>1713.36</ele>
			<time>2019-03-24T16:47:43.99Z</time>
		</trkpt>
		<trkpt lat="35.822477" lon="-106.173382">
			<ele>1712.70</ele>
			<time>2019-03-24T16:47:48.99Z</time>
		</trkpt>
		<trkpt lat="35.822477" lon="-106.173382">
			<ele>1712.01</ele>
			<time>2019-03-24T16:47:49.09Z</time>
		</trkpt>
		<trkpt lat="35.822395" lon="-106.173306">
			<ele>1710.99</ele>
			<time>2019-03-24T16:49:11.93Z</time>
		</trkpt>
		<trkpt lat="35.822316" lon="-106.173247">
			<ele>1710.80</ele>
			<time>2019-03-24T16:49:24.62Z</time>
		</trkpt>
		<trkpt lat="35.822236" lon="-106.173194">
			<ele>1710.91</ele>
			<time>2019-03-24T16:49:34.23Z</time>
		</trkpt>
		<trkpt lat="35.822177" lon="-106.173108">
			<ele>1711.08</ele>
			<time>2019-03-24T16:49:43.93Z</time>
		</trkpt>
		<trkpt lat="35.822118" lon="-106.173017">
			<ele>1711.09</ele>
			<time>2019-03-24T16:49:53.64Z</time>
		</trkpt>
		<trkpt lat="35.822074" lon="-106.172914">
			<ele>1711.03</ele>
			<time>2019-03-24T16:50:02.38Z</time>
		</trkpt>
		<trkpt lat="35.822026" lon="-106.172817">
			<ele>1711.02</ele>
			<time>2019-03-24T16:50:10.40Z</time>
		</trkpt>
		<trkpt lat="35.821964" lon="-106.172725">
			<ele>1711.11</ele>
			<time>2019-03-24T16:50:19.37Z</time>
		</trkpt>
		<trkpt lat="35.821930" lon="-106.172613">
			<ele>1711.24</ele>
			<time>2019-03-24T16:50:29.07Z</time>
		</trkpt>
		<trkpt lat="35.821901" lon="-106.172500">
			<ele>1711.29</ele>
			<time>2019-03-24T16:50:38.19Z</time>
		</trkpt>
		<trkpt lat="35.821817" lon="-106.172457">
			<ele>1711.21</ele>
			<time>2019-03-24T16:50:47.36Z</time>
		</trkpt>
		<trkpt lat="35.821818" lon="-106.172571">
			<ele>1711.10</ele>
			<time>2019-03-24T16:50:57.89Z</time>
		</trkpt>
		<trkpt lat="35.821851" lon="-106.172675">
			<ele>1711.03</ele>
			<time>2019-03-24T16:51:07.03Z</time>
		</trkpt>
		<trkpt lat="35.821861" lon="-106.172788">
			<ele>1710.99</ele>
			<time>2019-03-24T16:51:15.10Z</time>
		</trkpt>
		<trkpt lat="35.821898" lon="-106.172889">
			<ele>1710.91</ele>
			<time>2019-03-24T16:51:23.79Z</time>
		</trkpt>
		<trkpt lat="35.821933" lon="-106.172993">
			<ele>1710.61</ele>
			<time>2019-03-24T16:51:34.28Z</time>
		</trkpt>
		<trkpt lat="35.822000" lon="-106.173081">
			<ele>1709.90</ele>
			<time>2019-03-24T16:51:45.59Z</time>
		</trkpt>
		<trkpt lat="35.822055" lon="-106.173186">
			<ele>1708.86</ele>
			<time>2019-03-24T16:51:58.17Z</time>
		</trkpt>
		<trkpt lat="35.822063" lon="-106.173306">
			<ele>1707.89</ele>
			<time>2019-03-24T16:52:12.99Z</time>
		</trkpt>
		<trkpt lat="35.822092" lon="-106.173424">
			<ele>1707.32</ele>
			<time>2019-03-24T16:52:26.22Z</time>
		</trkpt>
		<trkpt lat="35.822119" lon="-106.173539">
			<ele>1707.04</ele>
			<time>2019-03-24T16:52:37.56Z</time>
		</trkpt>
		<trkpt lat="35.822155" lon="-106.173643">
			<ele>1706.68</ele>
			<time>2019-03-24T16:52:48.85Z</time>
		</trkpt>
		<trkpt lat="35.822198" lon="-106.173745">
			<ele>1705.96</ele>
			<time>2019-03-24T16:53:01.31Z</time>
		</trkpt>
		<trkpt lat="35.822259" lon="-106.173832">
			<ele>1704.92</ele>
			<time>2019-03-24T16:53:12.78Z</time>
		</trkpt>
		<trkpt lat="35.822265" lon="-106.173945">
			<ele>1703.81</ele>
			<time>2019-03-24T16:53:22.78Z</time>
		</trkpt>
		<trkpt lat="35.822307" lon="-106.174052">
			<ele>1702.88</ele>
			<time>2019-03-24T16:53:33.41Z</time>
		</trkpt>
		<trkpt lat="35.822372" lon="-106.174139">
			<ele>1702.24</ele>
			<time>2019-03-24T16:53:43.93Z</time>
		</trkpt>
		<trkpt lat="35.822400" lon="-106.174248">
			<ele>1701.86</ele>
			<time>2019-03-24T16:53:53.99Z</time>
		</trkpt>
		<trkpt lat="35.822400" lon="-106.174248">
			<ele>1701.53</ele>
			<time>2019-03-24T16:54:08.99Z</time>
		</trkpt>
		<trkpt lat="35.822400" lon="-106.174248">
			<ele>1701.02</ele>
			<time>2019-03-24T16:54:09.09Z</time>
		</trkpt>
		<trkpt lat="35.822495" lon="-106.174243">
			<ele>1699.80</ele>
			<time>2019-03-24T16:54:36.73Z</time>
		</trkpt>
		<trkpt lat="35.822568" lon="-106.174313">
			<ele>1699.51</ele>
			<time>2019-03-24T16:54:50.46Z</time>
		</trkpt>
		<trkpt lat="35.822654" lon="-106.174354">
			<ele>1699.39</ele>
			<time>2019-03-24T16:55:04.42Z</time>
		</trkpt>
		<trkpt lat="35.822678" lon="-106.174467">
			<ele>1699.00</ele>
			<time>2019-03-24T16:55:17.52Z</time>
		</trkpt>
		<trkpt lat="35.822699" lon="-106.174580">
			<ele>1698.08</ele>
			<time>2019-03-24T16:55:30.96Z</time>
		</trkpt>
		<trkpt lat="35.822744" lon="-106.174682">
			<ele>1696.74</ele>
			<time>2019-03-24T16:55:46.82Z</time>
		</trkpt>
		<trkpt lat="35.822760" lon="-106.174793">
			<ele>1695.11</ele>
			<time>2019-03-24T16:56:11.67Z</time>
		</trkpt>
		<trkpt lat="35.822797" lon="-106.174901">
			<ele>1693.20</ele>
			<time>2019-03-24T16:56:31.04Z</time>
		</trkpt>
		<trkpt lat="35.822823" lon="-106.175009">
			<ele>1691.27</ele>
			<time>2019-03-24T16:56:42.94Z</time>
		</trkpt>
		<trkpt lat="35.822896" lon="-106.175093">
			<ele>1689.61</ele>
			<time>2019-03-24T16:56:55.99Z</time>
		</trkpt>
		<trkpt lat="35.822896" lon="-106.175093">
			<ele>1688.39</ele>
			<time>2019-03-24T16:57:10.99Z</time>
		</trkpt>
		<trkpt lat="35.822896" lon="-106.175093">
			<ele>1687.66</ele>
			<time>2019-03-24T16:57:11.09Z</time>
		</trkpt>
		<trkpt lat="35.823038" lon="-106.175164">
			<ele>1687.20</ele>
			<time>2019-03-24T16:58:10.98Z</time>
		</trkpt>
		<trkpt lat="35.823038" lon="-106.175164">
			<ele>1686.70</ele>
			<time>2019-03-24T16:58:31.98Z</time>
		</trkpt>
		<trkpt lat="35.823038" lon="-106.175164">
			<ele>1686.08</ele>
			<time>2019-03-24T16:58:32.08Z</time>
		</trkpt>
		<trkpt lat="35.823079" lon="-106.175271">
			<ele>1685.46</ele>
			<time>2019-03-24T16:58:51.98Z</time>
		</trkpt>
		<trkpt lat="35.823079" lon="-106.175271">
			<ele>1684.89</ele>
			<time>2019-03-24T16:58:57.98Z</time>
		</trkpt>
		<trkpt lat="35.823079" lon="-106.175271">
			<ele>1684.31</ele>
			<time>2019-03-24T16:59:59.98Z</time>
		</trkpt>
		<trkpt lat="35.823079" lon="-106.175271">
			<ele>1683.73</ele>
			<time>2019-03-24T17:01:15.93Z</time>
		</trkpt>
		<trkpt lat="35.823102" lon="-106.175161">
			<ele>1682.65</ele>
			<time>2019-03-24T17:03:25.01Z</time>
		</trkpt>
		<trkpt lat="35.823147" lon="-106.175059">
			<ele>1682.59</ele>
			<time>2019-03-24T17:03:47.46Z</time>
		</trkpt>
		<trkpt lat="35.823180" lon="-106.174951">
			<ele>1683.12</ele>
			<time>2019-03-24T17:04:02.99Z</time>
		</trkpt>
		<trkpt lat="35.823180" lon="-106.174951">
			<ele>1683.77</ele>
			<time>2019-03-24T17:04:12.99Z</time>
		</trkpt>
		<trkpt lat="35.823201" lon="-106.174723">
			<ele>1691.40</ele>
			<time>2019-03-24T17:53:15.22Z</time>
		</trkpt>
		<trkpt lat="35.823201" lon="-106.174723">
			<ele>1690.62</ele>
			<time>2019-03-24T17:53:24.99Z</time>
		</trkpt>
		<trkpt lat="35.823201" lon="-106.174723">
			<ele>1690.18</ele>
			<time>2019-03-24T17:53:25.09Z</time>
		</trkpt>
		<trkpt lat="35.823156" lon="-106.174615">
			<ele>1689.13</ele>
			<time>2019-03-24T17:53:53.44Z</time>
		</trkpt>
		<trkpt lat="35.823100" lon="-106.174523">
			<ele>1689.02</ele>
			<time>2019-03-24T17:54:05.87Z</time>
		</trkpt>
		<trkpt lat="35.823019" lon="-106.174463">
			<ele>1689.96</ele>
			<time>2019-03-24T17:54:16.98Z</time>
		</trkpt>
		<trkpt lat="35.822971" lon="-106.174363">
			<ele>1691.82</ele>
			<time>2019-03-24T17:54:28.57Z</time>
		</trkpt>
		<trkpt lat="35.822891" lon="-106.174304">
			<ele>1693.91</ele>
			<time>2019-03-24T17:54:40.53Z</time>
		</trkpt>
		<trkpt lat="35.822818" lon="-106.174229">
			<ele>1695.67</ele>
			<time>2019-03-24T17:54:51.99Z</time>
		</trkpt>
		<trkpt lat="35.822818" lon="-106.174229">
			<ele>1696.72</ele>
			<time>2019-03-24T17:54:58.99Z</time>
		</trkpt>
		<trkpt lat="35.822818" lon="-106.174229">
			<ele>1696.77</ele>
			<time>2019-03-24T17:55:01.06Z</time>
		</trkpt>
		<trkpt lat="35.822729" lon="-106.174151">
			<ele>1695.12</ele>
			<time>2019-03-24T17:55:22.53Z</time>
		</trkpt>
		<trkpt lat="35.822697" lon="-106.174042">
			<ele>1695.12</ele>
			<time>2019-03-24T17:55:35.60Z</time>
		</trkpt>
		<trkpt lat="35.822788" lon="-106.174037">
			<ele>1696.40</ele>
			<time>2019-03-24T17:55:46.14Z</time>
		</trkpt>
		<trkpt lat="35.822864" lon="-106.174099">
			<ele>1698.28</ele>
			<time>2019-03-24T17:55:54.35Z</time>
		</trkpt>
		<trkpt lat="35.822925" lon="-106.174182">
			<ele>1699.68</ele>
			<time>2019-03-24T17:56:02.80Z</time>
		</trkpt>
		<trkpt lat="35.823009" lon="-106.174235">
			<ele>1700.14</ele>
			<time>2019-03-24T17:56:12.86Z</time>
		</trkpt>
		<trkpt lat="35.823092" lon="-106.174292">
			<ele>1699.84</ele>
			<time>2019-03-24T17:56:23.59Z</time>
		</trkpt>
		<trkpt lat="35.823183" lon="-106.174268">
			<ele>1699.21</ele>
			<time>2019-03-24T17:56:36.20Z</time>
		</trkpt>
		<trkpt lat="35.823226" lon="-106.174167">
			<ele>1698.55</ele>
			<time>2019-03-24T17:56:49.99Z</time>
		</trkpt>
		<trkpt lat="35.823226" lon="-106.174167">
			<ele>1697.92</ele>
			<time>2019-03-24T17:56:50.99Z</time>
		</trkpt>
		<trkpt lat="35.823226" lon="-106.174167">
			<ele>1697.36</ele>
			<time>2019-03-24T17:57:11.42Z</time>
		</trkpt>
		<trkpt lat="35.823220" lon="-106.174031">
			<ele>1696.88</ele>
			<time>2019-03-24T17:57:24.89Z</time>
		</trkpt>
		<trkpt lat="35.823247" lon="-106.173921">
			<ele>1696.77</ele>
			<time>2019-03-24T17:57:33.10Z</time>
		</trkpt>
		<trkpt lat="35.823300" lon="-106.173827">
			<ele>1697.14</ele>
			<time>2019-03-24T17:57:42.14Z</time>
		</trkpt>
		<trkpt lat="35.823332" lon="-106.173721">
			<ele>1697.62</ele>
			<time>2019-03-24T17:57:50.99Z</time>
		</trkpt>
		<trkpt lat="35.823332" lon="-106.173721">
			<ele>1697.85</ele>
			<time>2019-03-24T17:57:52.99Z</time>
		</trkpt>
		<trkpt lat="35.823332" lon="-106.173721">
			<ele>1697.60</ele>
			<time>2019-03-24T17:58:22.31Z</time>
		</trkpt>
		<trkpt lat="35.823332" lon="-106.173721">
			<ele>1696.15</ele>
			<time>2019-03-24T17:59:32.98Z</time>
		</trkpt>
		<trkpt lat="35.823332" lon="-106.173721">
			<ele>1695.67</ele>
			<time>2019-03-24T17:59:58.39Z</time>
		</trkpt>
		<trkpt lat="35.823402" lon="-106.173616">
			<ele>1695.27</ele>
			<time>2019-03-24T18:00:10.98Z</time>
		</trkpt>
		<trkpt lat="35.823402" lon="-106.173616">
			<ele>1694.87</ele>
			<time>2019-03-24T18:00:17.98Z</time>
		</trkpt>
		<trkpt lat="35.823402" lon="-106.173616">
			<ele>1694.38</ele>
			<time>2019-03-24T18:00:18.08Z</time>
		</trkpt>
		<trkpt lat="35.823453" lon="-106.173514">
			<ele>1693.79</ele>
			<time>2019-03-24T18:00:33.56Z</time>
		</trkpt>
		<trkpt lat="35.823488" lon="-106.173408">
			<ele>1693.77</ele>
			<time>2019-03-24T18:00:41Z</time>
		</trkpt>
		<trkpt lat="35.823488" lon="-106.173408">
			<ele>1694.67</ele>
			<time>2019-03-24T18:00:48.99Z</time>
		</trkpt>
		<trkpt lat="35.823488" lon="-106.173408">
			<ele>1695.26</ele>
			<time>2019-03-24T18:01:05.74Z</time>
		</trkpt>
		<trkpt lat="35.823492" lon="-106.173253">
			<ele>1694.56</ele>
			<time>2019-03-24T18:01:42.70Z</time>
		</trkpt>
		<trkpt lat="35.823528" lon="-106.173138">
			<ele>1694.08</ele>
			<time>2019-03-24T18:01:54.57Z</time>
		</trkpt>
		<trkpt lat="35.823551" lon="-106.173028">
			<ele>1695.35</ele>
			<time>2019-03-24T18:02:05.24Z</time>
		</trkpt>
		<trkpt lat="35.823506" lon="-106.172931">
			<ele>1697.49</ele>
			<time>2019-03-24T18:02:16.30Z</time>
		</trkpt>
		<trkpt lat="35.823426" lon="-106.172872">
			<ele>1699.20</ele>
			<time>2019-03-24T18:02:28.10Z</time>
		</trkpt>
		<trkpt lat="35.823421" lon="-106.172755">
			<ele>1700.51</ele>
			<time>2019-03-24T18:02:40.22Z</time>
		</trkpt>
		<trkpt lat="35.823368" lon="-106.172655">
			<ele>1701.79</ele>
			<time>2019-03-24T18:02:53.99Z</time>
		</trkpt>
		<trkpt lat="35.823368" lon="-106.172655">
			<ele>1702.95</ele>
			<time>2019-03-24T18:03:02.99Z</time>
		</trkpt>
		<trkpt lat="35.823368" lon="-106.172655">
			<ele>1703.27</ele>
			<time>2019-03-24T18:03:37.12Z</time>
		</trkpt>
		<trkpt lat="35.823375" lon="-106.172530">
			<ele>1702.51</ele>
			<time>2019-03-24T18:03:56.84Z</time>
		</trkpt>
		<trkpt lat="35.823321" lon="-106.172441">
			<ele>1702.32</ele>
			<time>2019-03-24T18:04:07.58Z</time>
		</trkpt>
		<trkpt lat="35.823286" lon="-106.172326">
			<ele>1704.10</ele>
			<time>2019-03-24T18:04:18.61Z</time>
		</trkpt>
		<trkpt lat="35.823251" lon="-106.172203">
			<ele>1706.70</ele>
			<time>2019-03-24T18:04:28.57Z</time>
		</trkpt>
		<trkpt lat="35.823212" lon="-106.172103">
			<ele>1708.47</ele>
			<time>2019-03-24T18:04:36.67Z</time>
		</trkpt>
		<trkpt lat="35.823184" lon="-106.171991">
			<ele>1709.23</ele>
			<time>2019-03-24T18:04:45.87Z</time>
		</trkpt>
		<trkpt lat="35.823145" lon="-106.171877">
			<ele>1709.48</ele>
			<time>2019-03-24T18:04:56.72Z</time>
		</trkpt>
		<trkpt lat="35.823114" lon="-106.171764">
			<ele>1709.68</ele>
			<time>2019-03-24T18:05:06.85Z</time>
		</trkpt>
		<trkpt lat="35.823070" lon="-106.171667">
			<ele>1710.07</ele>
			<time>2019-03-24T18:05:16.69Z</time>
		</trkpt>
		<trkpt lat="35.823054" lon="-106.171555">
			<ele>1710.76</ele>
			<time>2019-03-24T18:05:27.98Z</time>
		</trkpt>
		<trkpt lat="35.823054" lon="-106.171555">
			<ele>1711.59</ele>
			<time>2019-03-24T18:05:31.98Z</time>
		</trkpt>
		<trkpt lat="35.823054" lon="-106.171555">
			<ele>1711.80</ele>
			<time>2019-03-24T18:05:32.08Z</time>
		</trkpt>
		<trkpt lat="35.823120" lon="-106.171462">
			<ele>1710.08</ele>
			<time>2019-03-24T18:05:56.44Z</time>
		</trkpt>
		<trkpt lat="35.823184" lon="-106.171369">
			<ele>1709.93</ele>
			<time>2019-03-24T18:06:05.90Z</time>
		</trkpt>
		<trkpt lat="35.823240" lon="-106.171280">
			<ele>1710.79</ele>
			<time>2019-03-24T18:06:14.70Z</time>
		</trkpt>
		<trkpt lat="35.823296" lon="-106.171182">
			<ele>1711.75</ele>
			<time>2019-03-24T18:06:24.34Z</time>
		</trkpt>
		<trkpt lat="35.823347" lon="-106.171087">
			<ele>1712.03</ele>
			<time>2019-03-24T18:06:33.22Z</time>
		</trkpt>
		<trkpt lat="35.823420" lon="-106.171013">
			<ele>1711.79</ele>
			<time>2019-03-24T18:06:42.23Z</time>
		</trkpt>
		<trkpt lat="35.823511" lon="-106.170988">
			<ele>1711.50</ele>
			<time>2019-03-24T18:06:51.25Z</time>
		</trkpt>
		<trkpt lat="35.823608" lon="-106.170964">
			<ele>1711.36</ele>
			<time>2019-03-24T18:07:01.46Z</time>
		</trkpt>
		<trkpt lat="35.823699" lon="-106.170948">
			<ele>1711.19</ele>
			<time>2019-03-24T18:07:11.13Z</time>
		</trkpt>
		<trkpt lat="35.823789" lon="-106.170992">
			<ele>1710.63</ele>
			<time>2019-03-24T18:07:21.01Z</time>
		</trkpt>
		<trkpt lat="35.823864" lon="-106.170914">
			<ele>1709.58</ele>
			<time>2019-03-24T18:07:30.75Z</time>
		</trkpt>
		<trkpt lat="35.823854" lon="-106.170796">
			<ele>1708.24</ele>
			<time>2019-03-24T18:07:39.45Z</time>
		</trkpt>
		<trkpt lat="35.823847" lon="-106.170684">
			<ele>1707.03</ele>
			<time>2019-03-24T18:07:48.24Z</time>
		</trkpt>
		<trkpt lat="35.823841" lon="-106.170568">
			<ele>1706.39</ele>
			<time>2019-03-24T18:07:58.18Z</time>
		</trkpt>
		<trkpt lat="35.823811" lon="-106.170455">
			<ele>1706.46</ele>
			<time>2019-03-24T18:08:08.74Z</time>
		</trkpt>
		<trkpt lat="35.823901" lon="-106.170412">
			<ele>1707.05</ele>
			<time>2019-03-24T18:08:18.82Z</time>
		</trkpt>
		<trkpt lat="35.823983" lon="-106.170475">
			<ele>1707.86</ele>
			<time>2019-03-24T18:08:27.58Z</time>
		</trkpt>
		<trkpt lat="35.824055" lon="-106.170558">
			<ele>1708.43</ele>
			<time>2019-03-24T18:08:36.23Z</time>
		</trkpt>
		<trkpt lat="35.824134" lon="-106.170620">
			<ele>1708.39</ele>
			<time>2019-03-24T18:08:45.49Z</time>
		</trkpt>
		<trkpt lat="35.824221" lon="-106.170653">
			<ele>1707.67</ele>
			<time>2019-03-24T18:08:54.79Z</time>
		</trkpt>
		<trkpt lat="35.824318" lon="-106.170691">
			<ele>1706.46</ele>
			<time>2019-03-24T18:09:04.62Z</time>
		</trkpt>
		<trkpt lat="35.824411" lon="-106.170668">
			<ele>1705.32</ele>
			<time>2019-03-24T18:09:13.71Z</time>
		</trkpt>
		<trkpt lat="35.824479" lon="-106.170574">
			<ele>1704.67</ele>
			<time>2019-03-24T18:09:22.77Z</time>
		</trkpt>
		<trkpt lat="35.824538" lon="-106.170478">
			<ele>1704.52</ele>
			<time>2019-03-24T18:09:31.65Z</time>
		</trkpt>
		<trkpt lat="35.824523" lon="-106.170359">
			<ele>1704.63</ele>
			<time>2019-03-24T18:09:41.15Z</time>
		</trkpt>
		<trkpt lat="35.824552" lon="-106.170242">
			<ele>1704.75</ele>
			<time>2019-03-24T18:09:50.65Z</time>
		</trkpt>
		<trkpt lat="35.824607" lon="-106.170151">
			<ele>1704.76</ele>
			<time>2019-03-24T18:09:58.76Z</time>
		</trkpt>
		<trkpt lat="35.824657" lon="-106.170041">
			<ele>1704.71</ele>
			<time>2019-03-24T18:10:07.77Z</time>
		</trkpt>
		<trkpt lat="35.824743" lon="-106.169980">
			<ele>1704.72</ele>
			<time>2019-03-24T18:10:16.63Z</time>
		</trkpt>
		<trkpt lat="35.824831" lon="-106.169951">
			<ele>1704.80</ele>
			<time>2019-03-24T18:10:24.51Z</time>
		</trkpt>
		<trkpt lat="35.824921" lon="-106.169916">
			<ele>1704.86</ele>
			<time>2019-03-24T18:10:32.59Z</time>
		</trkpt>
		<trkpt lat="35.825020" lon="-106.169884">
			<ele>1704.79</ele>
			<time>2019-03-24T18:10:41.37Z</time>
		</trkpt>
		<trkpt lat="35.825111" lon="-106.169848">
			<ele>1704.56</ele>
			<time>2019-03-24T18:10:49.53Z</time>
		</trkpt>
		<trkpt lat="35.825211" lon="-106.169864">
			<ele>1704.24</ele>
			<time>2019-03-24T18:10:58.22Z</time>
		</trkpt>
		<trkpt lat="35.825269" lon="-106.169959">
			<ele>1704.04</ele>
			<time>2019-03-24T18:11:06.55Z</time>
		</trkpt>
		<trkpt lat="35.825301" lon="-106.170075">
			<ele>1704.01</ele>
			<time>2019-03-24T18:11:15.48Z</time>
		</trkpt>
		<trkpt lat="35.825369" lon="-106.170161">
			<ele>1703.98</ele>
			<time>2019-03-24T18:11:25.20Z</time>
		</trkpt>
		<trkpt lat="35.825458" lon="-106.170125">
			<ele>1703.70</ele>
			<time>2019-03-24T18:11:35.48Z</time>
		</trkpt>
		<trkpt lat="35.825517" lon="-106.170029">
			<ele>1703.24</ele>
			<time>2019-03-24T18:11:44.89Z</time>
		</trkpt>
		<trkpt lat="35.825539" lon="-106.169917">
			<ele>1702.95</ele>
			<time>2019-03-24T18:11:52.92Z</time>
		</trkpt>
		<trkpt lat="35.825526" lon="-106.169792">
			<ele>1703.03</ele>
			<time>2019-03-24T18:12:02.45Z</time>
		</trkpt>
		<trkpt lat="35.825485" lon="-106.169683">
			<ele>1703.39</ele>
			<time>2019-03-24T18:12:11.43Z</time>
		</trkpt>
		<trkpt lat="35.825503" lon="-106.169567">
			<ele>1703.72</ele>
			<time>2019-03-24T18:12:19.98Z</time>
		</trkpt>
		<trkpt lat="35.825503" lon="-106.169567">
			<ele>1703.81</ele>
			<time>2019-03-24T18:12:29.98Z</time>
		</trkpt>
		<trkpt lat="35.825503" lon="-106.169567">
			<ele>1703.47</ele>
			<time>2019-03-24T18:12:30.08Z</time>
		</trkpt>
		<trkpt lat="35.825504" lon="-106.169406">
			<ele>1702.74</ele>
			<time>2019-03-24T18:12:51.39Z</time>
		</trkpt>
		<trkpt lat="35.825530" lon="-106.169289">
			<ele>1702.14</ele>
			<time>2019-03-24T18:13:00.88Z</time>
		</trkpt>
		<trkpt lat="35.825613" lon="-106.169224">
			<ele>1702.07</ele>
			<time>2019-03-24T18:13:10.35Z</time>
		</trkpt>
		<trkpt lat="35.825703" lon="-106.169190">
			<ele>1702.29</ele>
			<time>2019-03-24T18:13:19.95Z</time>
		</trkpt>
		<trkpt lat="35.825766" lon="-106.169093">
			<ele>1702.36</ele>
			<time>2019-03-24T18:13:31.85Z</time>
		</trkpt>
		<trkpt lat="35.825821" lon="-106.169004">
			<ele>1702.02</ele>
			<time>2019-03-24T18:13:41.60Z</time>
		</trkpt>
		<trkpt lat="35.825914" lon="-106.168987">
			<ele>1701.41</ele>
			<time>2019-03-24T18:13:49.61Z</time>
		</trkpt>
		<trkpt lat="35.826001" lon="-106.169017">
			<ele>1700.90</ele>
			<time>2019-03-24T18:13:56.98Z</time>
		</trkpt>
		<trkpt lat="35.826093" lon="-106.169030">
			<ele>1700.60</ele>
			<time>2019-03-24T18:14:05.16Z</time>
		</trkpt>
		<trkpt lat="35.826188" lon="-106.169009">
			<ele>1700.42</ele>
			<time>2019-03-24T18:14:14.60Z</time>
		</trkpt>
		<trkpt lat="35.826273" lon="-106.168964">
			<ele>1700.16</ele>
			<time>2019-03-24T18:14:23.24Z</time>
		</trkpt>
		<trkpt lat="35.826366" lon="-106.168919">
			<ele>1699.83</ele>
			<time>2019-03-24T18:14:32.36Z</time>
		</trkpt>
		<trkpt lat="35.826442" lon="-106.168860">
			<ele>1699.62</ele>
			<time>2019-03-24T18:14:40.65Z</time>
		</trkpt>
		<trkpt lat="35.826517" lon="-106.168795">
			<ele>1699.66</ele>
			<time>2019-03-24T18:14:48.45Z</time>
		</trkpt>
		<trkpt lat="35.826566" lon="-106.168697">
			<ele>1699.84</ele>
			<time>2019-03-24T18:14:56.94Z</time>
		</trkpt>
		<trkpt lat="35.826539" lon="-106.168589">
			<ele>1700.02</ele>
			<time>2019-03-24T18:15:05.94Z</time>
		</trkpt>
		<trkpt lat="35.826537" lon="-106.168472">
			<ele>1700.16</ele>
			<time>2019-03-24T18:15:14.83Z</time>
		</trkpt>
		<trkpt lat="35.826578" lon="-106.168368">
			<ele>1700.49</ele>
			<time>2019-03-24T18:15:23.72Z</time>
		</trkpt>
		<trkpt lat="35.826676" lon="-106.168352">
			<ele>1701.12</ele>
			<time>2019-03-24T18:15:32.30Z</time>
		</trkpt>
		<trkpt lat="35.826763" lon="-106.168425">
			<ele>1701.70</ele>
			<time>2019-03-24T18:15:40.37Z</time>
		</trkpt>
		<trkpt lat="35.826834" lon="-106.168493">
			<ele>1701.81</ele>
			<time>2019-03-24T18:15:48.23Z</time>
		</trkpt>
		<trkpt lat="35.826921" lon="-106.168538">
			<ele>1701.45</ele>
			<time>2019-03-24T18:15:57.31Z</time>
		</trkpt>
		<trkpt lat="35.827003" lon="-106.168584">
			<ele>1700.98</ele>
			<time>2019-03-24T18:16:06.17Z</time>
		</trkpt>
		<trkpt lat="35.827094" lon="-106.168643">
			<ele>1700.65</ele>
			<time>2019-03-24T18:16:15.79Z</time>
		</trkpt>
		<trkpt lat="35.827177" lon="-106.168686">
			<ele>1700.43</ele>
			<time>2019-03-24T18:16:24.61Z</time>
		</trkpt>
		<trkpt lat="35.827275" lon="-106.168658">
			<ele>1700.22</ele>
			<time>2019-03-24T18:16:34.98Z</time>
		</trkpt>
		<trkpt lat="35.827338" lon="-106.168567">
			<ele>1700.19</ele>
			<time>2019-03-24T18:16:44.78Z</time>
		</trkpt>
		<trkpt lat="35.827344" lon="-106.168448">
			<ele>1700.56</ele>
			<time>2019-03-24T18:16:54.28Z</time>
		</trkpt>
		<trkpt lat="35.827370" lon="-106.168330">
			<ele>1701.18</ele>
			<time>2019-03-24T18:17:04.62Z</time>
		</trkpt>
		<trkpt lat="35.827423" lon="-106.168239">
			<ele>1701.55</ele>
			<time>2019-03-24T18:17:14.30Z</time>
		</trkpt>
		<trkpt lat="35.827512" lon="-106.168196">
			<ele>1701.37</ele>
			<time>2019-03-24T18:17:23.83Z</time>
		</trkpt>
		<trkpt lat="35.827601" lon="-106.168179">
			<ele>1700.78</ele>
			<time>2019-03-24T18:17:32.51Z</time>
		</trkpt>
		<trkpt lat="35.827683" lon="-106.168126">
			<ele>1699.91</ele>
			<time>2019-03-24T18:17:41Z</time>
		</trkpt>
		<trkpt lat="35.827729" lon="-106.168025">
			<ele>1698.75</ele>
			<time>2019-03-24T18:17:49.70Z</time>
		</trkpt>
		<trkpt lat="35.827823" lon="-106.167995">
			<ele>1697.42</ele>
			<time>2019-03-24T18:17:59.50Z</time>
		</trkpt>
		<trkpt lat="35.827912" lon="-106.168013">
			<ele>1696.16</ele>
			<time>2019-03-24T18:18:07.79Z</time>
		</trkpt>
		<trkpt lat="35.828006" lon="-106.168024">
			<ele>1695.07</ele>
			<time>2019-03-24T18:18:15.82Z</time>
		</trkpt>
		<trkpt lat="35.828051" lon="-106.167924">
			<ele>1694.12</ele>
			<time>2019-03-24T18:18:24.28Z</time>
		</trkpt>
		<trkpt lat="35.828001" lon="-106.167831">
			<ele>1693.13</ele>
			<time>2019-03-24T18:18:33.27Z</time>
		</trkpt>
		<trkpt lat="35.827913" lon="-106.167769">
			<ele>1692.07</ele>
			<time>2019-03-24T18:18:41.84Z</time>
		</trkpt>
		<trkpt lat="35.827833" lon="-106.167709">
			<ele>1691.24</ele>
			<time>2019-03-24T18:18:48.86Z</time>
		</trkpt>
		<trkpt lat="35.827753" lon="-106.167659">
			<ele>1690.94</ele>
			<time>2019-03-24T18:18:55.83Z</time>
		</trkpt>
		<trkpt lat="35.827679" lon="-106.167591">
			<ele>1691.14</ele>
			<time>2019-03-24T18:19:04.59Z</time>
		</trkpt>
		<trkpt lat="35.827651" lon="-106.167479">
			<ele>1691.56</ele>
			<time>2019-03-24T18:19:14.37Z</time>
		</trkpt>
		<trkpt lat="35.827636" lon="-106.167362">
			<ele>1691.82</ele>
			<time>2019-03-24T18:19:23.98Z</time>
		</trkpt>
		<trkpt lat="35.827705" lon="-106.167279">
			<ele>1691.65</ele>
			<time>2019-03-24T18:19:33.39Z</time>
		</trkpt>
		<trkpt lat="35.827763" lon="-106.167189">
			<ele>1690.86</ele>
			<time>2019-03-24T18:19:42.12Z</time>
		</trkpt>
		<trkpt lat="35.827774" lon="-106.167074">
			<ele>1689.22</ele>
			<time>2019-03-24T18:19:51.18Z</time>
		</trkpt>
		<trkpt lat="35.827844" lon="-106.167004">
			<ele>1686.88</ele>
			<time>2019-03-24T18:20:00.68Z</time>
		</trkpt>
		<trkpt lat="35.827935" lon="-106.167027">
			<ele>1684.59</ele>
			<time>2019-03-24T18:20:10.18Z</time>
		</trkpt>
		<trkpt lat="35.827926" lon="-106.166905">
			<ele>1682.90</ele>
			<time>2019-03-24T18:20:20.72Z</time>
		</trkpt>
		<trkpt lat="35.828015" lon="-106.166887">
			<ele>1681.63</ele>
			<time>2019-03-24T18:20:31.75Z</time>
		</trkpt>
		<trkpt lat="35.828017" lon="-106.166770">
			<ele>1680.53</ele>
			<time>2019-03-24T18:20:44.18Z</time>
		</trkpt>
		<trkpt lat="35.828005" lon="-106.166657">
			<ele>1679.61</ele>
			<time>2019-03-24T18:20:55.10Z</time>
		</trkpt>
		<trkpt lat="35.828069" lon="-106.166563">
			<ele>1678.90</ele>
			<time>2019-03-24T18:21:05.68Z</time>
		</trkpt>
		<trkpt lat="35.828101" lon="-106.166456">
			<ele>1678.48</ele>
			<time>2019-03-24T18:21:14.31Z</time>
		</trkpt>
		<trkpt lat="35.828066" lon="-106.166342">
			<ele>1678.45</ele>
			<time>2019-03-24T18:21:23.25Z</time>
		</trkpt>
		<trkpt lat="35.828130" lon="-106.166260">
			<ele>1678.81</ele>
			<time>2019-03-24T18:21:32.44Z</time>
		</trkpt>
		<trkpt lat="35.828228" lon="-106.166262">
			<ele>1679.59</ele>
			<time>2019-03-24T18:21:41.71Z</time>
		</trkpt>
		<trkpt lat="35.828299" lon="-106.166176">
			<ele>1680.54</ele>
			<time>2019-03-24T18:21:50.76Z</time>
		</trkpt>
		<trkpt lat="35.828367" lon="-106.166099">
			<ele>1681.27</ele>
			<time>2019-03-24T18:21:59.93Z</time>
		</trkpt>
		<trkpt lat="35.828447" lon="-106.166029">
			<ele>1681.61</ele>
			<time>2019-03-24T18:22:09.51Z</time>
		</trkpt>
		<trkpt lat="35.828527" lon="-106.165969">
			<ele>1681.77</ele>
			<time>2019-03-24T18:22:18.09Z</time>
		</trkpt>
		<trkpt lat="35.828603" lon="-106.165899">
			<ele>1681.98</ele>
			<time>2019-03-24T18:22:26.83Z</time>
		</trkpt>
		<trkpt lat="35.828706" lon="-106.165875">
			<ele>1682.24</ele>
			<time>2019-03-24T18:22:37.43Z</time>
		</trkpt>
		<trkpt lat="35.828794" lon="-106.165826">
			<ele>1682.43</ele>
			<time>2019-03-24T18:22:46.59Z</time>
		</trkpt>
		<trkpt lat="35.828887" lon="-106.165834">
			<ele>1682.48</ele>
			<time>2019-03-24T18:22:54.71Z</time>
		</trkpt>
		<trkpt lat="35.828979" lon="-106.165843">
			<ele>1682.45</ele>
			<time>2019-03-24T18:23:03.05Z</time>
		</trkpt>
		<trkpt lat="35.829036" lon="-106.165932">
			<ele>1682.35</ele>
			<time>2019-03-24T18:23:11.81Z</time>
		</trkpt>
		<trkpt lat="35.829132" lon="-106.165949">
			<ele>1682.16</ele>
			<time>2019-03-24T18:23:20.99Z</time>
		</trkpt>
		<trkpt lat="35.829132" lon="-106.165949">
			<ele>1681.85</ele>
			<time>2019-03-24T18:23:32.99Z</time>
		</trkpt>
		<trkpt lat="35.829132" lon="-106.165949">
			<ele>1681.36</ele>
			<time>2019-03-24T18:23:33.09Z</time>
		</trkpt>
		<trkpt lat="35.829266" lon="-106.165869">
			<ele>1680.76</ele>
			<time>2019-03-24T18:23:57.75Z</time>
		</trkpt>
		<trkpt lat="35.829337" lon="-106.165786">
			<ele>1680.46</ele>
			<time>2019-03-24T18:24:03.34Z</time>
		</trkpt>
		<trkpt lat="35.829395" lon="-106.165689">
			<ele>1680.78</ele>
			<time>2019-03-24T18:24:07.99Z</time>
		</trkpt>
		<trkpt lat="35.829395" lon="-106.165689">
			<ele>1681.42</ele>
			<time>2019-03-24T18:24:21.99Z</time>
		</trkpt>
		<trkpt lat="35.829395" lon="-106.165689">
			<ele>1681.55</ele>
			<time>2019-03-24T18:24:22.09Z</time>
		</trkpt>
		<trkpt lat="35.829458" lon="-106.165542">
			<ele>1680.83</ele>
			<time>2019-03-24T18:24:39.99Z</time>
		</trkpt>
		<trkpt lat="35.829458" lon="-106.165542">
			<ele>1679.91</ele>
			<time>2019-03-24T18:24:43.99Z</time>
		</trkpt>
		<trkpt lat="35.829458" lon="-106.165542">
			<ele>1679.34</ele>
			<time>2019-03-24T18:24:44.09Z</time>
		</trkpt>
		<trkpt lat="35.829577" lon="-106.165529">
			<ele>1678.41</ele>
			<time>2019-03-24T18:25:13.05Z</time>
		</trkpt>
		<trkpt lat="35.829663" lon="-106.165568">
			<ele>1679.43</ele>
			<time>2019-03-24T18:25:19.99Z</time>
		</trkpt>
		<trkpt lat="35.829761" lon="-106.165615">
			<ele>1682.93</ele>
			<time>2019-03-24T18:25:25.99Z</time>
		</trkpt>
		<trkpt lat="35.829761" lon="-106.165615">
			<ele>1686.65</ele>
			<time>2019-03-24T18:25:34.99Z</time>
		</trkpt>
		<trkpt lat="35.829761" lon="-106.165615">
			<ele>1687.97</ele>
			<time>2019-03-24T18:25:35.09Z</time>
		</trkpt>
		<trkpt lat="35.829872" lon="-106.165647">
			<ele>1685.54</ele>
			<time>2019-03-24T18:25:58.08Z</time>
		</trkpt>
		<trkpt lat="35.829944" lon="-106.165574">
			<ele>1684.94</ele>
			<time>2019-03-24T18:26:06.83Z</time>
		</trkpt>
		<trkpt lat="35.830006" lon="-106.165477">
			<ele>1685.52</ele>
			<time>2019-03-24T18:26:15.45Z</time>
		</trkpt>
		<trkpt lat="35.830039" lon="-106.165374">
			<ele>1686.89</ele>
			<time>2019-03-24T18:26:23.14Z</time>
		</trkpt>
		<trkpt lat="35.830101" lon="-106.165285">
			<ele>1688.70</ele>
			<time>2019-03-24T18:26:31.74Z</time>
		</trkpt>
		<trkpt lat="35.830142" lon="-106.165178">
			<ele>1690.70</ele>
			<time>2019-03-24T18:26:40.72Z</time>
		</trkpt>
		<trkpt lat="35.830180" lon="-106.165076">
			<ele>1692.51</ele>
			<time>2019-03-24T18:26:49.21Z</time>
		</trkpt>
		<trkpt lat="35.830233" lon="-106.164972">
			<ele>1693.88</ele>
			<time>2019-03-24T18:26:58.29Z</time>
		</trkpt>
		<trkpt lat="35.830230" lon="-106.164858">
			<ele>1694.78</ele>
			<time>2019-03-24T18:27:06.45Z</time>
		</trkpt>
		<trkpt lat="35.830254" lon="-106.164740">
			<ele>1695.39</ele>
			<time>2019-03-24T18:27:14.63Z</time>
		</trkpt>
		<trkpt lat="35.830346" lon="-106.164695">
			<ele>1696.03</ele>
			<time>2019-03-24T18:27:23.02Z</time>
		</trkpt>
		<trkpt lat="35.830438" lon="-106.164728">
			<ele>1696.89</ele>
			<time>2019-03-24T18:27:30.93Z</time>
		</trkpt>
		<trkpt lat="35.830528" lon="-106.164778">
			<ele>1697.75</ele>
			<time>2019-03-24T18:27:39.47Z</time>
		</trkpt>
		<trkpt lat="35.830586" lon="-106.164881">
			<ele>1698.30</ele>
			<time>2019-03-24T18:27:48.63Z</time>
		</trkpt>
		<trkpt lat="35.830637" lon="-106.164975">
			<ele>1698.43</ele>
			<time>2019-03-24T18:27:57.03Z</time>
		</trkpt>
		<trkpt lat="35.830663" lon="-106.165086">
			<ele>1698.23</ele>
			<time>2019-03-24T18:28:06.17Z</time>
		</trkpt>
		<trkpt lat="35.830740" lon="-106.165144">
			<ele>1697.88</ele>
			<time>2019-03-24T18:28:14.75Z</time>
		</trkpt>
		<trkpt lat="35.830833" lon="-106.165143">
			<ele>1697.52</ele>
			<time>2019-03-24T18:28:22.27Z</time>
		</trkpt>
		<trkpt lat="35.830926" lon="-106.165171">
			<ele>1697.38</ele>
			<time>2019-03-24T18:28:29.72Z</time>
		</trkpt>
		<trkpt lat="35.831010" lon="-106.165237">
			<ele>1697.80</ele>
			<time>2019-03-24T18:28:38.16Z</time>
		</trkpt>
		<trkpt lat="35.831085" lon="-106.165319">
			<ele>1698.70</ele>
			<time>2019-03-24T18:28:47.44Z</time>
		</trkpt>
		<trkpt lat="35.831144" lon="-106.165409">
			<ele>1699.55</ele>
			<time>2019-03-24T18:28:56.12Z</time>
		</trkpt>
		<trkpt lat="35.831217" lon="-106.165484">
			<ele>1700.05</ele>
			<time>2019-03-24T18:29:04.26Z</time>
		</trkpt>
		<trkpt lat="35.831274" lon="-106.165571">
			<ele>1700.28</ele>
			<time>2019-03-24T18:29:12.34Z</time>
		</trkpt>
		<trkpt lat="35.831359" lon="-106.165632">
			<ele>1700.27</ele>
			<time>2019-03-24T18:29:21.73Z</time>
		</trkpt>
		<trkpt lat="35.831440" lon="-106.165690">
			<ele>1700.06</ele>
			<time>2019-03-24T18:29:31.04Z</time>
		</trkpt>
		<trkpt lat="35.831505" lon="-106.165771">
			<ele>1699.81</ele>
			<time>2019-03-24T18:29:40.72Z</time>
		</trkpt>
		<trkpt lat="35.831601" lon="-106.165807">
			<ele>1699.64</ele>
			<time>2019-03-24T18:29:51.99Z</time>
		</trkpt>
		<trkpt lat="35.831691" lon="-106.165815">
			<ele>1699.52</ele>
			<time>2019-03-24T18:30:00.54Z</time>
		</trkpt>
		<trkpt lat="35.831784" lon="-106.165779">
			<ele>1699.22</ele>
			<time>2019-03-24T18:30:08.50Z</time>
		</trkpt>
		<trkpt lat="35.831873" lon="-106.165757">
			<ele>1698.43</ele>
			<time>2019-03-24T18:30:15.87Z</time>
		</trkpt>
		<trkpt lat="35.831966" lon="-106.165740">
			<ele>1697.03</ele>
			<time>2019-03-24T18:30:23.90Z</time>
		</trkpt>
		<trkpt lat="35.832056" lon="-106.165728">
			<ele>1695.27</ele>
			<time>2019-03-24T18:30:32.09Z</time>
		</trkpt>
		<trkpt lat="35.832147" lon="-106.165714">
			<ele>1693.47</ele>
			<time>2019-03-24T18:30:41.89Z</time>
		</trkpt>
		<trkpt lat="35.832214" lon="-106.165619">
			<ele>1691.92</ele>
			<time>2019-03-24T18:30:53.99Z</time>
		</trkpt>
		<trkpt lat="35.832214" lon="-106.165619">
			<ele>1690.78</ele>
			<time>2019-03-24T18:31:09.99Z</time>
		</trkpt>
		<trkpt lat="35.832214" lon="-106.165619">
			<ele>1690.05</ele>
			<time>2019-03-24T18:31:34.87Z</time>
		</trkpt>
		<trkpt lat="35.832250" lon="-106.165511">
			<ele>1689.12</ele>
			<time>2019-03-24T18:31:57.99Z</time>
		</trkpt>
		<trkpt lat="35.832250" lon="-106.165511">
			<ele>1688.83</ele>
			<time>2019-03-24T18:32:06.99Z</time>
		</trkpt>
		<trkpt lat="35.832250" lon="-106.165511">
			<ele>1688.50</ele>
			<time>2019-03-24T18:32:48.47Z</time>
		</trkpt>
		<trkpt lat="35.832312" lon="-106.165421">
			<ele>1687.21</ele>
			<time>2019-03-24T18:32:59.94Z</time>
		</trkpt>
		<trkpt lat="35.832362" lon="-106.165315">
			<ele>1686.85</ele>
			<time>2019-03-24T18:33:06.48Z</time>
		</trkpt>
		<trkpt lat="35.832419" lon="-106.165228">
			<ele>1686.70</ele>
			<time>2019-03-24T18:33:11.98Z</time>
		</trkpt>
		<trkpt lat="35.832419" lon="-106.165228">
			<ele>1686.40</ele>
			<time>2019-03-24T18:33:16.98Z</time>
		</trkpt>
		<trkpt lat="35.832419" lon="-106.165228">
			<ele>1685.75</ele>
			<time>2019-03-24T18:33:22.65Z</time>
		</trkpt>
		<trkpt lat="35.832510" lon="-106.165252">
			<ele>1685.09</ele>
			<time>2019-03-24T18:33:37.13Z</time>
		</trkpt>
		<trkpt lat="35.832607" lon="-106.165264">
			<ele>1684.71</ele>
			<time>2019-03-24T18:33:44.67Z</time>
		</trkpt>
		<trkpt lat="35.832700" lon="-106.165278">
			<ele>1684.58</ele>
			<time>2019-03-24T18:33:50.98Z</time>
		</trkpt>
		<trkpt lat="35.832700" lon="-106.165278">
			<ele>1684.58</ele>
			<time>2019-03-24T18:33:52.98Z</time>
		</trkpt>
		<trkpt lat="35.832700" lon="-106.165278">
			<ele>1684.34</ele>
			<time>2019-03-24T18:33:55.18Z</time>
		</trkpt>
		<trkpt lat="35.832790" lon="-106.165241">
			<ele>1682.91</ele>
			<time>2019-03-24T18:34:04.98Z</time>
		</trkpt>
		<trkpt lat="35.832790" lon="-106.165241">
			<ele>1682.56</ele>
			<time>2019-03-24T18:34:05.98Z</time>
		</trkpt>
		<trkpt lat="35.832790" lon="-106.165241">
			<ele>1682.27</ele>
			<time>2019-03-24T18:34:06.66Z</time>
		</trkpt>
		<trkpt lat="35.832845" lon="-106.165147">
			<ele>1681.00</ele>
			<time>2019-03-24T18:34:17.98Z</time>
		</trkpt>
		<trkpt lat="35.832845" lon="-106.165147">
			<ele>1680.60</ele>
			<time>2019-03-24T18:34:24.98Z</time>
		</trkpt>
		<trkpt lat="35.832845" lon="-106.165147">
			<ele>1680.29</ele>
			<time>2019-03-24T18:34:25.08Z</time>
		</trkpt>
		<trkpt lat="35.832934" lon="-106.165178">
			<ele>1679.04</ele>
			<time>2019-03-24T18:34:47.98Z</time>
		</trkpt>
		<trkpt lat="35.833024" lon="-106.165162">
			<ele>1679.51</ele>
			<time>2019-03-24T18:34:56.35Z</time>
		</trkpt>
		<trkpt lat="35.833067" lon="-106.165063">
			<ele>1681.62</ele>
			<time>2019-03-24T18:35:05.50Z</time>
		</trkpt>
		<trkpt lat="35.833054" lon="-106.164950">
			<ele>1683.92</ele>
			<time>2019-03-24T18:35:14.76Z</time>
		</trkpt>
		<trkpt lat="35.833051" lon="-106.164839">
			<ele>1684.84</ele>
			<time>2019-03-24T18:35:23.67Z</time>
		</trkpt>
		<trkpt lat="35.833129" lon="-106.164774">
			<ele>1684.41</ele>
			<time>2019-03-24T18:35:32.96Z</time>
		</trkpt>
		<trkpt lat="35.833157" lon="-106.164668">
			<ele>1683.26</ele>
			<time>2019-03-24T18:35:41.97Z</time>
		</trkpt>
		<trkpt lat="35.833137" lon="-106.164544">
			<ele>1681.77</ele>
			<time>2019-03-24T18:35:50.16Z</time>
		</trkpt>
		<trkpt lat="35.833123" lon="-106.164425">
			<ele>1680.05</ele>
			<time>2019-03-24T18:35:56.99Z</time>
		</trkpt>
		<trkpt lat="35.833123" lon="-106.164425">
			<ele>1678.51</ele>
			<time>2019-03-24T18:36:03.99Z</time>
		</trkpt>
		<trkpt lat="35.833123" lon="-106.164425">
			<ele>1677.49</ele>
			<time>2019-03-24T18:36:06.91Z</time>
		</trkpt>
		<trkpt lat="35.833083" lon="-106.164278">
			<ele>1676.87</ele>
			<time>2019-03-24T18:36:24.87Z</time>
		</trkpt>
		<trkpt lat="35.833117" lon="-106.164176">
			<ele>1676.33</ele>
			<time>2019-03-24T18:36:34.39Z</time>
		</trkpt>
		<trkpt lat="35.833195" lon="-106.164117">
			<ele>1675.55</ele>
			<time>2019-03-24T18:36:44.06Z</time>
		</trkpt>
		<trkpt lat="35.833218" lon="-106.164005">
			<ele>1674.46</ele>
			<time>2019-03-24T18:36:52.35Z</time>
		</trkpt>
		<trkpt lat="35.833239" lon="-106.163884">
			<ele>1673.29</ele>
			<time>2019-03-24T18:37:00.60Z</time>
		</trkpt>
		<trkpt lat="35.833280" lon="-106.163770">
			<ele>1672.24</ele>
			<time>2019-03-24T18:37:08.95Z</time>
		</trkpt>
		<trkpt lat="35.833332" lon="-106.163677">
			<ele>1671.40</ele>
			<time>2019-03-24T18:37:16.95Z</time>
		</trkpt>
		<trkpt lat="35.833405" lon="-106.163602">
			<ele>1670.75</ele>
			<time>2019-03-24T18:37:25.81Z</time>
		</trkpt>
		<trkpt lat="35.833455" lon="-106.163507">
			<ele>1670.35</ele>
			<time>2019-03-24T18:37:34.58Z</time>
		</trkpt>
		<trkpt lat="35.833503" lon="-106.163406">
			<ele>1670.18</ele>
			<time>2019-03-24T18:37:43.46Z</time>
		</trkpt>
		<trkpt lat="35.833525" lon="-106.163298">
			<ele>1670.18</ele>
			<time>2019-03-24T18:37:51.57Z</time>
		</trkpt>
		<trkpt lat="35.833530" lon="-106.163183">
			<ele>1670.23</ele>
			<time>2019-03-24T18:37:58.50Z</time>
		</trkpt>
		<trkpt lat="35.833540" lon="-106.163057">
			<ele>1670.28</ele>
			<time>2019-03-24T18:38:05.92Z</time>
		</trkpt>
		<trkpt lat="35.833558" lon="-106.162944">
			<ele>1670.41</ele>
			<time>2019-03-24T18:38:13.13Z</time>
		</trkpt>
		<trkpt lat="35.833606" lon="-106.162843">
			<ele>1670.72</ele>
			<time>2019-03-24T18:38:21.30Z</time>
		</trkpt>
		<trkpt lat="35.833629" lon="-106.162722">
			<ele>1671.17</ele>
			<time>2019-03-24T18:38:29.90Z</time>
		</trkpt>
		<trkpt lat="35.833641" lon="-106.162606">
			<ele>1671.55</ele>
			<time>2019-03-24T18:38:37.97Z</time>
		</trkpt>
		<trkpt lat="35.833661" lon="-106.162477">
			<ele>1671.70</ele>
			<time>2019-03-24T18:38:47.13Z</time>
		</trkpt>
		<trkpt lat="35.833674" lon="-106.162349">
			<ele>1671.68</ele>
			<time>2019-03-24T18:38:56.14Z</time>
		</trkpt>
		<trkpt lat="35.833700" lon="-106.162235">
			<ele>1671.55</ele>
			<time>2019-03-24T18:39:04.72Z</time>
		</trkpt>
		<trkpt lat="35.833787" lon="-106.162278">
			<ele>1671.41</ele>
			<time>2019-03-24T18:39:13.88Z</time>
		</trkpt>
		<trkpt lat="35.833886" lon="-106.162282">
			<ele>1671.35</ele>
			<time>2019-03-24T18:39:22Z</time>
		</trkpt>
		<trkpt lat="35.833974" lon="-106.162258">
			<ele>1671.44</ele>
			<time>2019-03-24T18:39:28.78Z</time>
		</trkpt>
		<trkpt lat="35.834066" lon="-106.162287">
			<ele>1671.60</ele>
			<time>2019-03-24T18:39:36.50Z</time>
		</trkpt>
		<trkpt lat="35.834156" lon="-106.162340">
			<ele>1671.71</ele>
			<time>2019-03-24T18:39:45.53Z</time>
		</trkpt>
		<trkpt lat="35.834247" lon="-106.162311">
			<ele>1671.76</ele>
			<time>2019-03-24T18:39:53.90Z</time>
		</trkpt>
		<trkpt lat="35.834330" lon="-106.162245">
			<ele>1671.76</ele>
			<time>2019-03-24T18:40:01.80Z</time>
		</trkpt>
		<trkpt lat="35.834417" lon="-106.162209">
			<ele>1671.73</ele>
			<time>2019-03-24T18:40:09.23Z</time>
		</trkpt>
		<trkpt lat="35.834514" lon="-106.162218">
			<ele>1671.67</ele>
			<time>2019-03-24T18:40:17.69Z</time>
		</trkpt>
		<trkpt lat="35.834604" lon="-106.162265">
			<ele>1671.62</ele>
			<time>2019-03-24T18:40:26.28Z</time>
		</trkpt>
		<trkpt lat="35.834703" lon="-106.162258">
			<ele>1671.54</ele>
			<time>2019-03-24T18:40:34.84Z</time>
		</trkpt>
		<trkpt lat="35.834789" lon="-106.162213">
			<ele>1671.35</ele>
			<time>2019-03-24T18:40:42.74Z</time>
		</trkpt>
		<trkpt lat="35.834880" lon="-106.162189">
			<ele>1670.99</ele>
			<time>2019-03-24T18:40:50.58Z</time>
		</trkpt>
		<trkpt lat="35.834965" lon="-106.162234">
			<ele>1670.59</ele>
			<time>2019-03-24T18:40:58.98Z</time>
		</trkpt>
		<trkpt lat="35.834965" lon="-106.162234">
			<ele>1670.32</ele>
			<time>2019-03-24T18:41:02.98Z</time>
		</trkpt>
		<trkpt lat="35.834965" lon="-106.162234">
			<ele>1669.99</ele>
			<time>2019-03-24T18:41:43.83Z</time>
		</trkpt>
		<trkpt lat="35.835054" lon="-106.162258">
			<ele>1668.72</ele>
			<time>2019-03-24T18:42:03.41Z</time>
		</trkpt>
		<trkpt lat="35.835144" lon="-106.162311">
			<ele>1668.64</ele>
			<time>2019-03-24T18:42:12.23Z</time>
		</trkpt>
		<trkpt lat="35.835246" lon="-106.162321">
			<ele>1669.29</ele>
			<time>2019-03-24T18:42:19.64Z</time>
		</trkpt>
		<trkpt lat="35.835341" lon="-106.162349">
			<ele>1670.08</ele>
			<time>2019-03-24T18:42:26.67Z</time>
		</trkpt>
		<trkpt lat="35.835430" lon="-106.162369">
			<ele>1670.45</ele>
			<time>2019-03-24T18:42:33.53Z</time>
		</trkpt>
		<trkpt lat="35.835526" lon="-106.162409">
			<ele>1670.46</ele>
			<time>2019-03-24T18:42:41.94Z</time>
		</trkpt>
		<trkpt lat="35.835624" lon="-106.162362">
			<ele>1670.30</ele>
			<time>2019-03-24T18:42:49.98Z</time>
		</trkpt>
		<trkpt lat="35.835624" lon="-106.162362">
			<ele>1670.03</ele>
			<time>2019-03-24T18:42:50.98Z</time>
		</trkpt>
		<extensions>
			<gte:name>#1</gte:name>
			<gte:color>#fbaf00</gte:color>
		</extensions>
	</trkseg>
</trk>
</gpx>